Provisional Data: Kitchen Creek near Huntington Mills, PA


Please select a monitoring station.
Please select start date.
Please select start date.

Toggle Unit: C/F Toggle Unit: C/F
Sample Time Temperature (C) Temperature (F) Specific Conductivity (mS/cm) pH   Turbidity (NTU+) DO (mg/L)
5/17/2022 12:00:00 AM 14.4 57.92 0.056 6.7 0.54 9.67
5/17/2022 12:15:00 AM 14.32 57.776 0.056 6.72 0.63 9.68
5/17/2022 12:30:00 AM 14.25 57.65 0.056 6.72 0.62 9.69
5/17/2022 12:45:00 AM 14.18 57.524 0.056 6.72 0.55 9.72
5/17/2022 1:00:00 AM 14.1 57.38 0.056 6.72 0.62 9.74
5/17/2022 1:15:00 AM 14.02 57.236 0.055 6.72 0.51 9.76
5/17/2022 1:30:00 AM 13.95 57.11 0.055 6.72 0.52 9.78
5/17/2022 1:45:00 AM 13.88 56.984 0.055 6.72 0.48 9.79
5/17/2022 2:00:00 AM 13.81 56.858 0.055 6.68 0.47 9.81
5/17/2022 2:15:00 AM 13.73 56.714 0.055 6.71 0.48 9.82
5/17/2022 2:30:00 AM 13.66 56.588 0.055 6.71 0.43 9.83
5/17/2022 2:45:00 AM 13.59 56.462 0.055 6.71 0.54 9.85
5/17/2022 3:00:00 AM 13.52 56.336 0.055 6.7 0.42 9.86
5/17/2022 3:15:00 AM 13.45 56.21 0.055 6.69 0.5 9.89
5/17/2022 3:30:00 AM 13.37 56.066 0.055 6.7 0.39 9.9
5/17/2022 3:45:00 AM 13.3 55.94 0.055 6.69 0.44 9.92
5/17/2022 4:00:00 AM 13.23 55.814 0.055 6.7 0.47 9.94
5/17/2022 4:15:00 AM 13.15 55.67 0.055 6.66 0.49 9.96
5/17/2022 4:30:00 AM 13.08 55.544 0.055 6.69 0.39 9.97
5/17/2022 4:45:00 AM 13.01 55.418 0.055 6.69 0.36 9.98
5/17/2022 5:00:00 AM 12.95 55.31 0.055 6.69 0.43 10
5/17/2022 5:15:00 AM 12.88 55.184 0.055 6.68 0.38 10.02
5/17/2022 5:30:00 AM 12.81 55.058 0.055 6.67 0.4 10.04
5/17/2022 5:45:00 AM 12.73 54.914 0.055 6.7 0.31 10.06
5/17/2022 6:00:00 AM 12.66 54.788 0.055 6.69 0.45 10.09
5/17/2022 6:15:00 AM 12.6 54.68 0.055 6.7 0.45 10.11
5/17/2022 6:30:00 AM 12.53 54.554 0.054 6.7 0.5 10.15
5/17/2022 6:45:00 AM 12.47 54.446 0.054 6.65 0.36 10.17
5/17/2022 7:00:00 AM 12.42 54.356 0.054 6.7 0.38 10.2
5/17/2022 7:15:00 AM 12.38 54.284 0.054 6.67 0.22 10.23
5/17/2022 7:30:00 AM 12.35 54.23 0.054 6.71 0.22 10.25
5/17/2022 7:45:00 AM 12.33 54.194 0.054 6.71 0.21 10.28
5/17/2022 8:00:00 AM 12.31 54.158 0.054 6.58 0.19 10.29
5/17/2022 8:15:00 AM 12.31 54.158 0.054 6.6 0.14 10.31
5/17/2022 8:30:00 AM 12.34 54.212 0.054 6.62 0.19 10.32
5/17/2022 8:45:00 AM 12.37 54.266 0.054 6.65 0.14 10.36
5/17/2022 9:00:00 AM 12.41 54.338 0.054 6.69 0.07 10.39
5/17/2022 9:15:00 AM 12.44 54.392 0.054 6.72 0.11 10.39
5/17/2022 9:30:00 AM 12.47 54.446 0.054 6.75 0.08 10.4
5/17/2022 9:45:00 AM 12.55 54.59 0.054 6.74 0.11 10.4
5/17/2022 10:00:00 AM 12.65 54.77 0.054 6.78 0.09 10.4
5/17/2022 10:15:00 AM 12.77 54.986 0.054 6.8 0.13 10.38
5/17/2022 10:30:00 AM 12.9 55.22 0.054 6.81 0.09 10.35
5/17/2022 10:45:00 AM 13.05 55.49 0.054 6.8 0.15 10.33
5/17/2022 11:00:00 AM 13.23 55.814 0.054 6.84 0.09 10.31
5/17/2022 11:15:00 AM 13.43 56.174 0.053 6.84 0.01 10.26
5/17/2022 11:30:00 AM 13.67 56.606 0.053 6.87 0.08 10.21
5/17/2022 11:45:00 AM 13.88 56.984 0.053 6.87 0.09 10.18
5/17/2022 12:00:00 PM 14.07 57.326 0.053 6.87 0.11 10.13
5/17/2022 12:15:00 PM 14.15 57.47 0.054 6.88 0.07 10.07
5/17/2022 12:30:00 PM 14.39 57.902 0.054 6.9 0.08 10.05
5/17/2022 12:45:00 PM 14.59 58.262 0.054 6.87 0.1 10.02
5/17/2022 1:00:00 PM 14.53 58.154 0.054 6.88 0.06 9.96
5/17/2022 1:15:00 PM 14.64 58.352 0.054 6.91 0.13 9.99
5/17/2022 1:30:00 PM 14.65 58.37 0.054 6.89 0.06 9.94
5/17/2022 1:45:00 PM 14.7 58.46 0.054 6.87 0.1 9.96
5/17/2022 2:00:00 PM 14.67 58.406 0.054 6.91 0 9.94
5/17/2022 2:15:00 PM 14.81 58.658 0.054 6.87 -0.03 9.94
5/17/2022 2:30:00 PM 14.87 58.766 0.054 6.9 -0.01 9.93
5/17/2022 2:45:00 PM 14.9 58.82 0.054 6.92 0.04 9.88
5/17/2022 3:00:00 PM 14.81 58.658 0.054 6.9 0 9.87
5/17/2022 3:15:00 PM 14.8 58.64 0.054 6.87 -0.08 9.87
5/17/2022 3:30:00 PM 14.79 58.622 0.054 6.9 0 9.87
5/17/2022 3:45:00 PM 14.69 58.442 0.054 6.88 -0.05 9.88
5/17/2022 4:00:00 PM 14.63 58.334 0.054 6.86 -0.03 9.89
5/17/2022 4:15:00 PM 14.6 58.28 0.054 6.88 0.03 9.91
5/17/2022 4:30:00 PM 14.57 58.226 0.055 6.88 0 9.86
5/17/2022 4:45:00 PM 14.52 58.136 0.055 6.85 0.06 9.84
5/17/2022 5:00:00 PM 14.46 58.028 0.055 6.87 -0.04 9.86
5/17/2022 5:15:00 PM 14.43 57.974 0.055 6.84 0.01 9.86
5/17/2022 5:30:00 PM 14.39 57.902 0.055 6.83 -0.12 9.84
5/17/2022 5:45:00 PM 14.33 57.794 0.055 6.83 -0.04 9.83
5/17/2022 6:00:00 PM 14.28 57.704 0.055 6.83 -0.04 9.82
5/17/2022 6:15:00 PM 14.22 57.596 0.055 6.82 -0.05 9.83
5/17/2022 6:30:00 PM 14.17 57.506 0.055 6.77 -0.02 9.83
5/17/2022 6:45:00 PM 14.11 57.398 0.055 6.81 -0.07 9.84
5/17/2022 7:00:00 PM 14.07 57.326 0.055 6.8 -0.02 9.84
5/17/2022 7:15:00 PM 14.03 57.254 0.055 6.8 -0.1 9.84
5/17/2022 7:30:00 PM 13.98 57.164 0.056 6.79 -0.07 9.85
5/17/2022 7:45:00 PM 13.92 57.056 0.056 6.79 -0.06 9.85
5/17/2022 8:00:00 PM 13.88 56.984 0.056 6.76 -0.07 9.86
5/17/2022 8:15:00 PM 13.82 56.876 0.056 6.77 -0.04 9.86
5/17/2022 8:30:00 PM 13.77 56.786 0.056 6.77 -0.05 9.86
5/17/2022 8:45:00 PM 13.72 56.696 0.056 6.76 -0.04 9.86
5/17/2022 9:00:00 PM 13.65 56.57 0.056 6.75 0.08 9.87
5/17/2022 9:15:00 PM 13.59 56.462 0.056 6.77 -0.02 9.88
5/17/2022 9:30:00 PM 13.53 56.354 0.056 6.75 -0.06 9.91
5/17/2022 9:45:00 PM 13.46 56.228 0.056 6.75 0.02 9.92
5/17/2022 10:00:00 PM 13.4 56.12 0.056 6.73 0.03 9.95
5/17/2022 10:15:00 PM 13.33 55.994 0.056 6.76 0.05 9.96
5/17/2022 10:30:00 PM 13.26 55.868 0.056 6.75 0.03 9.99
5/17/2022 10:45:00 PM 13.18 55.724 0.056 6.73 0 10
5/17/2022 11:00:00 PM 13.12 55.616 0.056 6.75 0.03 10.01
5/17/2022 11:15:00 PM 13.05 55.49 0.056 6.75 0.01 10.02
5/17/2022 11:30:00 PM 12.98 55.364 0.056 6.73 0.12 10.04
5/17/2022 11:45:00 PM 12.91 55.238 0.056 6.71 -0.01 10.06
5/18/2022 12:00:00 AM 12.85 55.13 0.056 6.73 0.07 10.08
5/18/2022 12:15:00 AM 12.78 55.004 0.056 6.75 -0.03 10.1
5/18/2022 12:30:00 AM 12.72 54.896 0.056 6.7 0.05 10.11
5/18/2022 12:45:00 AM 12.65 54.77 0.056 6.75 0.01 10.13
5/18/2022 1:00:00 AM 12.58 54.644 0.056 6.68 -0.04 10.15
5/18/2022 1:15:00 AM 12.51 54.518 0.056 6.73 0.05 10.17
5/18/2022 1:30:00 AM 12.44 54.392 0.056 6.74 0.02 10.18
5/18/2022 1:45:00 AM 12.37 54.266 0.056 6.75 0.06 10.19
5/18/2022 2:00:00 AM 12.3 54.14 0.056 6.73 0 10.21
5/18/2022 2:15:00 AM 12.23 54.014 0.056 6.75 0.04 10.23
5/18/2022 2:30:00 AM 12.16 53.888 0.056 6.72 0.1 10.25
5/18/2022 2:45:00 AM 12.09 53.762 0.056 6.74 0.01 10.27
5/18/2022 3:00:00 AM 12.02 53.636 0.056 6.66 0.01 10.29
5/18/2022 3:15:00 AM 11.95 53.51 0.056 6.68 -0.01 10.3
5/18/2022 3:30:00 AM 11.88 53.384 0.056 6.69 -0.03 10.32
5/18/2022 3:45:00 AM 11.81 53.258 0.056 6.68 -0.05 10.34
5/18/2022 4:00:00 AM 11.75 53.15 0.056 6.65 0 10.35
5/18/2022 4:15:00 AM 11.68 53.024 0.056 6.69 -0.03 10.36
5/18/2022 4:30:00 AM 11.62 52.916 0.056 6.66 -0.02 10.38
5/18/2022 4:45:00 AM 11.55 52.79 0.056 6.68 -0.01 10.4
5/18/2022 5:00:00 AM 11.49 52.682 0.056 6.68 -0.03 10.42
5/18/2022 5:15:00 AM 11.43 52.574 0.056 6.68 0.02 10.44
5/18/2022 5:30:00 AM 11.37 52.466 0.056 6.65 -0.04 10.45
5/18/2022 5:45:00 AM 11.31 52.358 0.056 6.63 0.03 10.47
5/18/2022 6:00:00 AM 11.25 52.25 0.056 6.68 -0.11 10.49
5/18/2022 6:15:00 AM 11.19 52.142 0.056 6.68 0.02 10.52
5/18/2022 6:30:00 AM 11.13 52.034 0.056 6.68 -0.09 10.55
5/18/2022 6:45:00 AM 11.08 51.944 0.056 6.68 -0.12 10.57
5/18/2022 7:00:00 AM 11.04 51.872 0.056 6.69 -0.08 10.59
5/18/2022 7:15:00 AM 11.01 51.818 0.056 6.69 -0.07 10.62
5/18/2022 7:30:00 AM 10.99 51.782 0.056 6.68 -0.03 10.65
5/18/2022 7:45:00 AM 10.98 51.764 0.056 6.71 -0.09 10.67
5/18/2022 8:00:00 AM 10.99 51.782 0.056 6.75 -0.12 10.7
5/18/2022 8:15:00 AM 11 51.8 0.056 6.76 -0.15 10.73
5/18/2022 8:30:00 AM 11.03 51.854 0.056 6.76 -0.12 10.75
5/18/2022 8:45:00 AM 11.08 51.944 0.056 6.8 -0.14 10.77
5/18/2022 9:00:00 AM 11.15 52.07 0.056 6.82 -0.19 10.8
5/18/2022 9:15:00 AM 11.21 52.178 0.056 6.83 -0.13 10.82
5/18/2022 9:30:00 AM 11.27 52.286 0.056 6.85 -0.17 10.82
5/18/2022 9:45:00 AM 11.34 52.412 0.056 6.86 -0.17 10.81
5/18/2022 10:00:00 AM 11.43 52.574 0.056 6.88 -0.19 10.8
5/18/2022 10:15:00 AM 11.55 52.79 0.056 6.89 -0.17 10.78
5/18/2022 10:30:00 AM 11.67 53.006 0.056 6.9 -0.18 10.76
5/18/2022 10:45:00 AM 11.78 53.204 0.055 6.9 -0.18 10.75
5/18/2022 11:00:00 AM 11.94 53.492 0.055 6.92 -0.19 10.72
5/18/2022 11:15:00 AM 12.12 53.816 0.055 6.93 -0.18 10.68
5/18/2022 11:30:00 AM 12.31 54.158 0.055 6.93 -0.25 10.64
5/18/2022 11:45:00 AM 12.52 54.536 0.055 6.9 -0.22 10.59
5/18/2022 12:00:00 PM 12.74 54.932 0.055 6.94 -0.19 10.54
5/18/2022 12:15:00 PM 12.93 55.274 0.055 6.95 -0.17 10.49
5/18/2022 12:30:00 PM 13.09 55.562 0.055 6.9 -0.07 10.45
5/18/2022 12:45:00 PM 13.23 55.814 0.055 6.96 -0.14 10.43
5/18/2022 1:00:00 PM 13.38 56.084 0.055 6.92 -0.23 10.39
5/18/2022 1:15:00 PM 13.46 56.228 0.055 6.95 -0.09 10.36
5/18/2022 1:30:00 PM 13.5 56.3 0.055 6.97 -0.2 10.33
5/18/2022 1:45:00 PM 13.46 56.228 0.055 6.96 -0.21 10.33
5/18/2022 2:00:00 PM 13.43 56.174 0.055 6.96 -0.17 10.33
5/18/2022 2:15:00 PM 13.42 56.156 0.055 6.96 -0.15 10.33
5/18/2022 2:30:00 PM 13.45 56.21 0.055 6.94 -0.12 10.33
5/18/2022 2:45:00 PM 13.48 56.264 0.055 6.97 -0.12 10.31
5/18/2022 3:00:00 PM 13.55 56.39 0.055 6.95 -0.15 10.29
5/18/2022 3:15:00 PM 13.56 56.408 0.055 6.95 -0.04 10.26
5/18/2022 3:30:00 PM 13.57 56.426 0.055 6.93 -0.2 10.24
5/18/2022 3:45:00 PM 13.57 56.426 0.055 6.95 -0.13 10.24
5/18/2022 4:00:00 PM 13.57 56.426 0.055 6.93 -0.07 10.21
5/18/2022 4:15:00 PM 13.59 56.462 0.055 6.91 -0.14 10.2
5/18/2022 4:30:00 PM 13.59 56.462 0.055 6.91 -0.2 10.21
5/18/2022 4:45:00 PM 13.57 56.426 0.055 6.92 -0.16 10.19
5/18/2022 5:00:00 PM 13.52 56.336 0.056 6.88 -0.25 10.13
5/18/2022 5:15:00 PM 13.49 56.282 0.056 6.86 -0.15 10.11
5/18/2022 5:30:00 PM 13.46 56.228 0.056 6.87 -0.2 10.07
5/18/2022 5:45:00 PM 13.44 56.192 0.056 6.84 -0.24 10.06
5/18/2022 6:00:00 PM 13.41 56.138 0.056 6.83 -0.24 10.04
5/18/2022 6:15:00 PM 13.37 56.066 0.056 6.75 -0.22 10.05
5/18/2022 6:30:00 PM 13.33 55.994 0.056 6.83 -0.25 10.07
5/18/2022 6:45:00 PM 13.29 55.922 0.056 6.81 -0.28 10.09
5/18/2022 7:00:00 PM 13.25 55.85 0.056 6.81 -0.25 10.06
5/18/2022 7:15:00 PM 13.22 55.796 0.056 6.77 -0.18 10.05
5/18/2022 7:30:00 PM 13.19 55.742 0.056 6.79 -0.26 10.05
5/18/2022 7:45:00 PM 13.16 55.688 0.056 6.78 -0.21 10.04
5/18/2022 8:00:00 PM 13.13 55.634 0.057 6.74 -0.27 10.03
5/18/2022 8:15:00 PM 13.1 55.58 0.057 6.78 -0.16 10.01
5/18/2022 8:30:00 PM 13.06 55.508 0.057 6.76 -0.17 10
5/18/2022 8:45:00 PM 13.03 55.454 0.057 6.75 -0.15 10
5/18/2022 9:00:00 PM 13 55.4 0.057 6.77 -0.12 10
5/18/2022 9:15:00 PM 12.97 55.346 0.057 6.77 -0.09 10.01
5/18/2022 9:30:00 PM 12.95 55.31 0.057 6.77 -0.16 10.02
5/18/2022 9:45:00 PM 12.91 55.238 0.057 6.76 -0.19 10.03
5/18/2022 10:00:00 PM 12.88 55.184 0.057 6.76 -0.15 10.04
5/18/2022 10:15:00 PM 12.85 55.13 0.057 6.77 -0.1 10.05
5/18/2022 10:30:00 PM 12.82 55.076 0.057 6.71 -0.14 10.05
5/18/2022 10:45:00 PM 12.8 55.04 0.057 6.77 -0.14 10.06
5/18/2022 11:00:00 PM 12.77 54.986 0.057 6.71 -0.08 10.07
5/18/2022 11:15:00 PM 12.74 54.932 0.057 6.75 -0.09 10.07
5/18/2022 11:30:00 PM 12.71 54.878 0.057 6.76 -0.09 10.08
5/18/2022 11:45:00 PM 12.68 54.824 0.057 6.76 -0.06 10.08
5/19/2022 12:00:00 AM 12.66 54.788 0.057 6.76 -0.02 10.08
5/19/2022 12:15:00 AM 12.63 54.734 0.057 6.74 0.03 10.09
5/19/2022 12:30:00 AM 12.6 54.68 0.057 6.76 -0.13 10.09
5/19/2022 12:45:00 AM 12.58 54.644 0.057 6.76 -0.01 10.1
5/19/2022 1:00:00 AM 12.55 54.59 0.057 6.74 0.01 10.1
5/19/2022 1:15:00 AM 12.53 54.554 0.057 6.72 -0.02 10.1
5/19/2022 1:30:00 AM 12.51 54.518 0.057 6.75 -0.05 10.11
5/19/2022 1:45:00 AM 12.48 54.464 0.057 6.74 0.01 10.11
5/19/2022 2:00:00 AM 12.46 54.428 0.057 6.72 -0.06 10.11
5/19/2022 2:15:00 AM 12.44 54.392 0.056 6.75 0 10.11
5/19/2022 2:30:00 AM 12.41 54.338 0.056 6.73 -0.03 10.11
5/19/2022 2:45:00 AM 12.39 54.302 0.056 6.74 -0.01 10.11
5/19/2022 3:00:00 AM 12.37 54.266 0.056 6.73 -0.04 10.11
5/19/2022 3:15:00 AM 12.35 54.23 0.056 6.74 -0.03 10.11
5/19/2022 3:30:00 AM 12.33 54.194 0.056 6.72 -0.02 10.12
5/19/2022 3:45:00 AM 12.31 54.158 0.056 6.74 0.05 10.12
5/19/2022 4:00:00 AM 12.29 54.122 0.056 6.7 -0.01 10.12
5/19/2022 4:15:00 AM 12.28 54.104 0.056 6.74 -0.05 10.13
5/19/2022 4:30:00 AM 12.26 54.068 0.057 6.72 -0.02 10.13
5/19/2022 4:45:00 AM 12.25 54.05 0.057 6.73 0.02 10.14
5/19/2022 5:00:00 AM 12.24 54.032 0.057 6.74 0.01 10.14
5/19/2022 5:15:00 AM 12.23 54.014 0.057 6.75 0.05 10.14
5/19/2022 5:30:00 AM 12.21 53.978 0.057 6.75 0.11 10.15
5/19/2022 5:45:00 AM 12.2 53.96 0.057 6.75 -0.01 10.15
5/19/2022 6:00:00 AM 12.19 53.942 0.057 6.74 0.03 10.16
5/19/2022 6:15:00 AM 12.18 53.924 0.057 6.72 0.03 10.17
5/19/2022 6:30:00 AM 12.18 53.924 0.057 6.75 0.05 10.17
5/19/2022 6:45:00 AM 12.17 53.906 0.057 6.74 0.01 10.19
5/19/2022 7:00:00 AM 12.16 53.888 0.057 6.76 0 10.2
5/19/2022 7:15:00 AM 12.16 53.888 0.057 6.76 -0.03 10.21
5/19/2022 7:30:00 AM 12.16 53.888 0.057 6.76 0.06 10.23
5/19/2022 7:45:00 AM 12.15 53.87 0.057 6.76 -0.02 10.24
5/19/2022 8:00:00 AM 12.15 53.87 0.057 6.78 -0.01 10.24
5/19/2022 8:15:00 AM 12.16 53.888 0.057 6.75 0.02 10.26
5/19/2022 8:30:00 AM 12.16 53.888 0.057 6.78 -0.04 10.26
5/19/2022 8:45:00 AM 12.17 53.906 0.057 6.79 -0.05 10.29
5/19/2022 9:00:00 AM 12.17 53.906 0.057 6.79 -0.09 10.3
5/19/2022 9:15:00 AM 12.18 53.924 0.057 6.81 -0.12 10.32
5/19/2022 9:30:00 AM 12.19 53.942 0.057 6.82 -0.05 10.31
5/19/2022 9:45:00 AM 12.2 53.96 0.057 6.82 -0.1 10.33
5/19/2022 10:00:00 AM 12.22 53.996 0.057 6.8 -0.05 10.34
5/19/2022 10:15:00 AM 12.23 54.014 0.057 6.84 -0.05 10.34
5/19/2022 10:30:00 AM 12.25 54.05 0.057 6.8 -0.09 10.33
5/19/2022 10:45:00 AM 12.26 54.068 0.057 6.84 -0.07 10.33
5/19/2022 11:00:00 AM 12.27 54.086 0.057 6.83 -0.11 10.32
5/19/2022 11:15:00 AM 12.29 54.122 0.057 6.83 -0.13 10.32
5/19/2022 11:30:00 AM 12.3 54.14 0.057 6.85 -0.07 10.32
5/19/2022 11:45:00 AM 12.32 54.176 0.057 6.85 -0.11 10.31
5/19/2022 12:00:00 PM 12.34 54.212 0.057 6.85 -0.07 10.31
5/19/2022 12:15:00 PM 12.36 54.248 0.057 6.83 -0.08 10.31
5/19/2022 12:30:00 PM 12.37 54.266 0.057 6.85 -0.11 10.3
5/19/2022 12:45:00 PM 12.39 54.302 0.057 6.85 -0.1 10.31
5/19/2022 1:00:00 PM 12.41 54.338 0.057 6.86 -0.16 10.31
5/19/2022 1:15:00 PM 12.42 54.356 0.058 6.86 -0.13 10.31
5/19/2022 1:30:00 PM 12.44 54.392 0.058 6.85 -0.15 10.31
5/19/2022 1:45:00 PM 12.47 54.446 0.057 6.87 -0.14 10.35
5/19/2022 2:00:00 PM 12.52 54.536 0.057 6.88 -0.13 10.37
5/19/2022 2:15:00 PM 12.63 54.734 0.057 6.9 -0.15 10.41
5/19/2022 2:30:00 PM 12.73 54.914 0.057 6.92 -0.16 10.4
5/19/2022 2:45:00 PM 12.88 55.184 0.057 6.93 -0.15 10.36
5/19/2022 3:00:00 PM 13 55.4 0.057 6.88 -0.13 10.33
5/19/2022 3:15:00 PM 13.11 55.598 0.057 6.94 -0.12 10.29
5/19/2022 3:30:00 PM 13.21 55.778 0.057 6.91 -0.15 10.25
5/19/2022 3:45:00 PM 13.3 55.94 0.057 6.9 -0.17 10.21
5/19/2022 4:00:00 PM 13.37 56.066 0.057 6.92 -0.12 10.16
5/19/2022 4:15:00 PM 13.41 56.138 0.057 6.9 -0.12 10.13
5/19/2022 4:30:00 PM 13.44 56.192 0.057 6.89 -0.13 10.1
5/19/2022 4:45:00 PM 13.49 56.282 0.057 6.89 -0.14 10.09
5/19/2022 5:00:00 PM 13.54 56.372 0.056 6.89 -0.14 10.06
5/19/2022 5:15:00 PM 13.59 56.462 0.056 6.87 -0.17 10.02
5/19/2022 5:30:00 PM 13.62 56.516 0.056 6.86 -0.06 9.98
5/19/2022 5:45:00 PM 13.65 56.57 0.056 6.85 -0.09 9.95
5/19/2022 6:00:00 PM 13.67 56.606 0.056 6.84 -0.09 9.94
5/19/2022 6:15:00 PM 13.68 56.624 0.056 6.82 -0.11 9.92
5/19/2022 6:30:00 PM 13.68 56.624 0.056 6.82 -0.15 9.9
5/19/2022 6:45:00 PM 13.68 56.624 0.056 6.81 -0.2 9.89
5/19/2022 7:00:00 PM 13.67 56.606 0.056 6.8 -0.15 9.88
5/19/2022 7:15:00 PM 13.65 56.57 0.056 6.76 -0.21 9.87
5/19/2022 7:30:00 PM 13.63 56.534 0.056 6.79 -0.21 9.87
5/19/2022 7:45:00 PM 13.61 56.498 0.056 6.78 -0.21 9.87
5/19/2022 8:00:00 PM 13.57 56.426 0.056 6.78 -0.15 9.86
5/19/2022 8:15:00 PM 13.54 56.372 0.057 6.77 -0.14 9.87
5/19/2022 8:30:00 PM 13.49 56.282 0.057 6.77 -0.16 9.88
5/19/2022 8:45:00 PM 13.44 56.192 0.057 6.77 -0.12 9.88
5/19/2022 9:00:00 PM 13.4 56.12 0.057 6.76 -0.09 9.89
5/19/2022 9:15:00 PM 13.35 56.03 0.057 6.76 -0.04 9.91
5/19/2022 9:30:00 PM 13.3 55.94 0.057 6.76 -0.04 9.92
5/19/2022 9:45:00 PM 13.25 55.85 0.057 6.74 -0.09 9.93
5/19/2022 10:00:00 PM 13.2 55.76 0.057 6.76 -0.07 9.95
5/19/2022 10:15:00 PM 13.15 55.67 0.057 6.75 -0.12 9.96
5/19/2022 10:30:00 PM 13.1 55.58 0.057 6.75 -0.07 9.97
5/19/2022 10:45:00 PM 13.05 55.49 0.057 6.74 0.01 9.98
5/19/2022 11:00:00 PM 13.01 55.418 0.057 6.74 0.03 9.98
5/19/2022 11:15:00 PM 12.97 55.346 0.057 6.75 -0.04 10
5/19/2022 11:30:00 PM 12.92 55.256 0.057 6.75 -0.04 10.01
5/19/2022 11:45:00 PM 12.88 55.184 0.057 6.75 -0.09 10.03
5/20/2022 12:00:00 AM 12.83 55.094 0.057 6.74 -0.01 10.04
5/20/2022 12:15:00 AM 12.79 55.022 0.057 6.74 -0.05 10.05
5/20/2022 12:30:00 AM 12.75 54.95 0.057 6.71 -0.08 10.06
5/20/2022 12:45:00 AM 12.72 54.896 0.057 6.71 -0.03 10.08
5/20/2022 1:00:00 AM 12.68 54.824 0.057 6.74 -0.06 10.09
5/20/2022 1:15:00 AM 12.64 54.752 0.057 6.72 -0.13 10.09
5/20/2022 1:30:00 AM 12.61 54.698 0.057 6.73 -0.04 10.1
5/20/2022 1:45:00 AM 12.58 54.644 0.057 6.73 -0.06 10.11
5/20/2022 2:00:00 AM 12.55 54.59 0.057 6.73 -0.03 10.12
5/20/2022 2:15:00 AM 12.51 54.518 0.057 6.73 -0.1 10.13
5/20/2022 2:30:00 AM 12.48 54.464 0.057 6.74 -0.07 10.13
5/20/2022 2:45:00 AM 12.44 54.392 0.057 6.73 -0.04 10.13
5/20/2022 3:00:00 AM 12.41 54.338 0.057 6.73 0.04 10.14
5/20/2022 3:15:00 AM 12.37 54.266 0.057 6.73 0.01 10.14
5/20/2022 3:30:00 AM 12.34 54.212 0.057 6.68 0.08 10.15
5/20/2022 3:45:00 AM 12.3 54.14 0.057 6.75 0 10.16
5/20/2022 4:00:00 AM 12.27 54.086 0.057 6.72 0.06 10.17
5/20/2022 4:15:00 AM 12.23 54.014 0.057 6.74 -0.06 10.18
5/20/2022 4:30:00 AM 12.2 53.96 0.057 6.74 0.11 10.2
5/20/2022 4:45:00 AM 12.16 53.888 0.057 6.73 0.07 10.21
5/20/2022 5:00:00 AM 12.13 53.834 0.057 6.73 -0.11 10.22
5/20/2022 5:15:00 AM 12.09 53.762 0.057 6.72 0.2 10.23
5/20/2022 5:30:00 AM 12.06 53.708 0.057 6.73 -0.06 10.24
5/20/2022 5:45:00 AM 12.02 53.636 0.057 6.73 -0.04 10.25
5/20/2022 6:00:00 AM 11.99 53.582 0.057 6.74 -0.06 10.27
5/20/2022 6:15:00 AM 11.96 53.528 0.057 6.73 -0.06 10.3
5/20/2022 6:30:00 AM 11.94 53.492 0.057 6.74 -0.07 10.33
5/20/2022 6:45:00 AM 11.93 53.474 0.057 6.74 -0.03 10.36
5/20/2022 7:00:00 AM 11.92 53.456 0.057 6.75 -0.08 10.39
5/20/2022 7:15:00 AM 11.92 53.456 0.057 6.76 0.03 10.42
5/20/2022 7:30:00 AM 11.93 53.474 0.057 6.77 -0.04 10.41
5/20/2022 7:45:00 AM 11.93 53.474 0.057 6.78 -0.15 10.41
5/20/2022 8:00:00 AM 11.94 53.492 0.057 6.78 -0.19 10.41
5/20/2022 8:15:00 AM 11.96 53.528 0.057 6.78 -0.05 10.44
5/20/2022 8:30:00 AM 12 53.6 0.056 6.8 -0.17 10.5
5/20/2022 8:45:00 AM 12.06 53.708 0.056 6.75 -0.17 10.53
5/20/2022 9:00:00 AM 12.11 53.798 0.056 6.83 -0.2 10.52
5/20/2022 9:15:00 AM 12.16 53.888 0.056 6.83 -0.21 10.51
5/20/2022 9:30:00 AM 12.22 53.996 0.056 6.83 -0.23 10.52
5/20/2022 9:45:00 AM 12.28 54.104 0.056 6.8 -0.13 10.52
5/20/2022 10:00:00 AM 12.35 54.23 0.056 6.85 -0.14 10.5
5/20/2022 10:15:00 AM 12.44 54.392 0.056 6.86 -0.21 10.51
5/20/2022 10:30:00 AM 12.49 54.482 0.056 6.85 -0.18 10.47
5/20/2022 10:45:00 AM 12.52 54.536 0.056 6.84 -0.13 10.4
5/20/2022 11:00:00 AM 12.55 54.59 0.056 6.81 -0.18 10.37
5/20/2022 11:15:00 AM 12.58 54.644 0.056 6.8 -0.21 10.35
5/20/2022 11:30:00 AM 12.67 54.806 0.056 6.84 -0.2 10.42
5/20/2022 11:45:00 AM 12.79 55.022 0.056 6.87 -0.23 10.46
5/20/2022 12:00:00 PM 12.96 55.328 0.056 6.88 -0.22 10.45
5/20/2022 12:15:00 PM 13.19 55.742 0.056 6.87 -0.22 10.43
5/20/2022 12:30:00 PM 13.48 56.264 0.056 6.93 -0.14 10.37
5/20/2022 12:45:00 PM 13.75 56.75 0.055 6.94 -0.16 10.3
5/20/2022 1:00:00 PM 13.94 57.092 0.055 6.94 -0.2 10.25
5/20/2022 1:15:00 PM 14.12 57.416 0.055 6.95 -0.13 10.2
5/20/2022 1:30:00 PM 14.17 57.506 0.055 6.95 -0.25 10.14
5/20/2022 1:45:00 PM 14.21 57.578 0.056 6.92 -0.21 10.05
5/20/2022 2:00:00 PM 14.21 57.578 0.056 6.88 -0.26 9.95
5/20/2022 2:15:00 PM 14.22 57.596 0.056 6.86 0 9.96
5/20/2022 2:30:00 PM 14.36 57.848 0.056 6.9 0 10.02
5/20/2022 2:45:00 PM 14.46 58.028 0.056 6.92 -0.05 10.05
5/20/2022 3:00:00 PM 14.56 58.208 0.056 6.93 -0.2 10.04
5/20/2022 3:15:00 PM 14.62 58.316 0.056 6.94 -0.12 10.01
5/20/2022 3:30:00 PM 14.67 58.406 0.056 6.92 -0.13 9.95
5/20/2022 3:45:00 PM 14.75 58.55 0.056 6.91 -0.2 9.93
5/20/2022 4:00:00 PM 14.82 58.676 0.056 6.89 -0.11 9.84
5/20/2022 4:15:00 PM 14.83 58.694 0.056 6.86 -0.14 9.77
5/20/2022 4:30:00 PM 14.81 58.658 0.056 6.82 -0.13 9.72
5/20/2022 4:45:00 PM 14.79 58.622 0.056 6.81 0.05 9.68
5/20/2022 5:00:00 PM 14.83 58.694 0.055 6.78 0.49 9.64
5/20/2022 5:15:00 PM 14.83 58.694 0.055 6.73 0.72 9.61
5/20/2022 5:30:00 PM 14.81 58.658 0.055 6.76 0.68 9.66
5/20/2022 5:45:00 PM 14.78 58.604 0.055 6.76 0.73 9.67
5/20/2022 6:00:00 PM 14.76 58.568 0.055 6.76 1.44 9.72
5/20/2022 6:15:00 PM 14.73 58.514 0.056 6.74 2.92 9.74
5/20/2022 6:30:00 PM 14.68 58.424 0.056 6.78 2.74 9.73
5/20/2022 6:45:00 PM 14.65 58.37 0.056 6.78 3.26 9.72
5/20/2022 7:00:00 PM 14.61 58.298 0.056 6.69 3.23 9.73
5/20/2022 7:15:00 PM 14.57 58.226 0.056 6.76 3.6 9.72
5/20/2022 7:30:00 PM 14.53 58.154 0.056 6.72 3.75 9.71
5/20/2022 7:45:00 PM 14.49 58.082 0.056 6.76 3.72 9.7
5/20/2022 8:00:00 PM 14.45 58.01 0.056 6.69 3.41 9.69
5/20/2022 8:15:00 PM 14.41 57.938 0.056 6.73 2.62 9.68
5/20/2022 8:30:00 PM 14.38 57.884 0.056 6.73 2.33 9.68
5/20/2022 8:45:00 PM 14.35 57.83 0.057 6.73 2.18 9.68
5/20/2022 9:00:00 PM 14.33 57.794 0.057 6.71 1.74 9.68
5/20/2022 9:15:00 PM 14.3 57.74 0.057 6.66 1.5 9.69
5/20/2022 9:30:00 PM 14.28 57.704 0.057 6.71 1.54 9.7
5/20/2022 9:45:00 PM 14.26 57.668 0.057 6.7 1.24 9.7
5/20/2022 10:00:00 PM 14.25 57.65 0.058 6.64 1.13 9.71
5/20/2022 10:15:00 PM 14.23 57.614 0.058 6.7 1.2 9.72
5/20/2022 10:30:00 PM 14.21 57.578 0.058 6.69 1.05 9.73
5/20/2022 10:45:00 PM 14.2 57.56 0.058 6.69 0.97 9.73
5/20/2022 11:00:00 PM 14.19 57.542 0.058 6.7 0.89 9.73
5/20/2022 11:15:00 PM 14.17 57.506 0.058 6.68 0.98 9.74
5/20/2022 11:30:00 PM 14.16 57.488 0.058 6.69 0.86 9.74
5/20/2022 11:45:00 PM 14.15 57.47 0.058 6.69 0.79 9.75
5/21/2022 12:00:00 AM 14.14 57.452 0.058 6.68 0.64 9.74
5/21/2022 12:15:00 AM 14.13 57.434 0.058 6.68 0.76 9.75
5/21/2022 12:30:00 AM 14.11 57.398 0.058 6.67 0.59 9.76
5/21/2022 12:45:00 AM 14.1 57.38 0.058 6.69 0.67 9.76
5/21/2022 1:00:00 AM 14.08 57.344 0.058 6.69 0.63 9.77
5/21/2022 1:15:00 AM 14.06 57.308 0.058 6.68 0.52 9.78
5/21/2022 1:30:00 AM 14.05 57.29 0.058 6.68 0.63 9.78
5/21/2022 1:45:00 AM 14.03 57.254 0.058 6.64 0.65 9.78
5/21/2022 2:00:00 AM 14.01 57.218 0.058 6.69 0.66 9.79
5/21/2022 2:15:00 AM 13.99 57.182 0.058 6.66 0.66 9.8
5/21/2022 2:30:00 AM 13.97 57.146 0.058 6.67 0.5 9.8
5/21/2022 2:45:00 AM 13.95 57.11 0.058 6.66 0.54 9.81
5/21/2022 3:00:00 AM 13.93 57.074 0.058 6.67 0.6 9.81
5/21/2022 3:15:00 AM 13.91 57.038 0.058 6.67 0.66 9.82
5/21/2022 3:30:00 AM 13.89 57.002 0.058 6.67 0.51 9.82
5/21/2022 3:45:00 AM 13.88 56.984 0.058 6.68 0.5 9.82
5/21/2022 4:00:00 AM 13.86 56.948 0.058 6.68 0.46 9.83
5/21/2022 4:15:00 AM 13.84 56.912 0.057 6.68 0.48 9.83
5/21/2022 4:30:00 AM 13.82 56.876 0.057 6.69 0.51 9.84
5/21/2022 4:45:00 AM 13.8 56.84 0.057 6.68 0.4 9.84
5/21/2022 5:00:00 AM 13.78 56.804 0.057 6.67 0.44 9.84
5/21/2022 5:15:00 AM 13.76 56.768 0.057 6.68 0.44 9.84
5/21/2022 5:30:00 AM 13.75 56.75 0.057 6.67 0.53 9.85
5/21/2022 5:45:00 AM 13.73 56.714 0.057 6.67 0.45 9.85
5/21/2022 6:00:00 AM 13.71 56.678 0.057 6.67 0.41 9.86
5/21/2022 6:15:00 AM 13.69 56.642 0.057 6.67 0.43 9.88
5/21/2022 6:30:00 AM 13.68 56.624 0.057 6.67 0.44 9.9
5/21/2022 6:45:00 AM 13.68 56.624 0.057 6.64 0.34 9.92
5/21/2022 7:00:00 AM 13.67 56.606 0.057 6.68 0.33 9.94
5/21/2022 7:15:00 AM 13.67 56.606 0.057 6.68 0.28 9.97
5/21/2022 7:30:00 AM 13.68 56.624 0.057 6.67 0.3 9.99
5/21/2022 7:45:00 AM 13.69 56.642 0.057 6.7 0.31 10.01
5/21/2022 8:00:00 AM 13.72 56.696 0.057 6.69 0.25 10.04
5/21/2022 8:15:00 AM 13.74 56.732 0.057 6.71 0.19 10.07
5/21/2022 8:30:00 AM 13.77 56.786 0.057 6.72 0.17 10.09
5/21/2022 8:45:00 AM 13.82 56.876 0.057 6.72 0.18 10.12
5/21/2022 9:00:00 AM 13.87 56.966 0.057 6.75 0.11 10.15
5/21/2022 9:15:00 AM 13.93 57.074 0.057 6.77 0.15 10.15
5/21/2022 9:30:00 AM 14.04 57.272 0.056 6.77 0.16 10.17
5/21/2022 9:45:00 AM 14.12 57.416 0.056 6.78 0.17 10.14
5/21/2022 10:00:00 AM 14.26 57.668 0.056 6.84 0.04 10.12
5/21/2022 10:15:00 AM 14.39 57.902 0.056 6.84 0.18 10.09
5/21/2022 10:30:00 AM 14.55 58.19 0.056 6.87 0.13 10.07
5/21/2022 10:45:00 AM 14.7 58.46 0.056 6.88 0.08 10.05
5/21/2022 11:00:00 AM 14.88 58.784 0.056 6.88 0.09 10.01
5/21/2022 11:15:00 AM 15.09 59.162 0.056 6.92 0.04 9.97
5/21/2022 11:30:00 AM 15.31 59.558 0.056 6.87 0.03 9.94
5/21/2022 11:45:00 AM 15.55 59.99 0.056 6.92 0.06 9.89
5/21/2022 12:00:00 PM 15.83 60.494 0.056 6.93 -0.02 9.85
5/21/2022 12:15:00 PM 16.1 60.98 0.056 6.92 0.13 9.8
5/21/2022 12:30:00 PM 16.38 61.484 0.056 6.94 0.05 9.74
5/21/2022 12:45:00 PM 16.65 61.97 0.056 6.94 -0.02 9.7
5/21/2022 1:00:00 PM 16.91 62.438 0.056 6.96 0.13 9.64
5/21/2022 1:15:00 PM 17.13 62.834 0.056 6.96 0.02 9.6
5/21/2022 1:30:00 PM 17.32 63.176 0.056 6.93 0.05 9.55
5/21/2022 1:45:00 PM 17.47 63.446 0.056 6.96 0.06 9.5
5/21/2022 2:00:00 PM 17.59 63.662 0.056 6.93 -0.01 9.45
5/21/2022 2:15:00 PM 17.69 63.842 0.056 6.94 0.06 9.44
5/21/2022 2:30:00 PM 17.64 63.752 0.056 6.95 0.02 9.39
5/21/2022 2:45:00 PM 17.59 63.662 0.056 6.93 0.13 9.38
5/21/2022 3:00:00 PM 17.62 63.716 0.056 6.93 0.07 9.37
5/21/2022 3:15:00 PM 17.67 63.806 0.056 6.94 0.13 9.37
5/21/2022 3:30:00 PM 17.72 63.896 0.056 6.93 0.31 9.34
5/21/2022 3:45:00 PM 17.8 64.04 0.056 6.93 0.61 9.31
5/21/2022 4:00:00 PM 17.84 64.112 0.056 6.91 0.87 9.29
5/21/2022 4:15:00 PM 17.84 64.112 0.056 6.91 0.99 9.25
5/21/2022 4:30:00 PM 17.84 64.112 0.056 6.89 0.73 9.24
5/21/2022 4:45:00 PM 17.86 64.148 0.056 6.8 0.39 9.23
5/21/2022 5:00:00 PM 17.86 64.148 0.056 6.85 0.13 9.2
5/21/2022 5:15:00 PM 17.86 64.148 0.056 6.87 0.17 9.18
5/21/2022 5:30:00 PM 17.83 64.094 0.056 6.85 0.05 9.18
5/21/2022 5:45:00 PM 17.8 64.04 0.056 6.84 -0.01 9.16
5/21/2022 6:00:00 PM 17.77 63.986 0.057 6.82 -0.03 9.15
5/21/2022 6:15:00 PM 17.75 63.95 0.057 6.82 -0.02 9.13
5/21/2022 6:30:00 PM 17.71 63.878 0.057 6.81 0.02 9.11
5/21/2022 6:45:00 PM 17.66 63.788 0.057 6.8 0.03 9.11
5/21/2022 7:00:00 PM 17.61 63.698 0.057 6.77 0.03 9.1
5/21/2022 7:15:00 PM 17.56 63.608 0.057 6.77 -0.01 9.1
5/21/2022 7:30:00 PM 17.5 63.5 0.057 6.78 0.05 9.1
5/21/2022 7:45:00 PM 17.45 63.41 0.057 6.77 0.13 9.1
5/21/2022 8:00:00 PM 17.39 63.302 0.057 6.73 0.06 9.1
5/21/2022 8:15:00 PM 17.34 63.212 0.057 6.75 0.11 9.1
5/21/2022 8:30:00 PM 17.29 63.122 0.057 6.72 0.09 9.09
5/21/2022 8:45:00 PM 17.24 63.032 0.058 6.73 0.02 9.1
5/21/2022 9:00:00 PM 17.19 62.942 0.058 6.72 0.18 9.11
5/21/2022 9:15:00 PM 17.14 62.852 0.058 6.65 0.11 9.12
5/21/2022 9:30:00 PM 17.09 62.762 0.058 6.71 0.11 9.12
5/21/2022 9:45:00 PM 17.05 62.69 0.058 6.71 0.13 9.13
5/21/2022 10:00:00 PM 17.01 62.618 0.058 6.71 0.12 9.13
5/21/2022 10:15:00 PM 16.97 62.546 0.058 6.7 0.19 9.14
5/21/2022 10:30:00 PM 16.93 62.474 0.058 6.66 0.1 9.15
5/21/2022 10:45:00 PM 16.89 62.402 0.058 6.7 0.18 9.16
5/21/2022 11:00:00 PM 16.86 62.348 0.058 6.7 0.18 9.18
5/21/2022 11:15:00 PM 16.82 62.276 0.058 6.67 0.11 9.18
5/21/2022 11:30:00 PM 16.79 62.222 0.058 6.69 0.15 9.19
5/21/2022 11:45:00 PM 16.76 62.168 0.058 6.69 0.14 9.2
5/22/2022 12:00:00 AM 16.73 62.114 0.058 6.67 0.19 9.21
5/22/2022 12:15:00 AM 16.7 62.06 0.058 6.69 0.16 9.21
5/22/2022 12:30:00 AM 16.67 62.006 0.058 6.68 0.22 9.22
5/22/2022 12:45:00 AM 16.64 61.952 0.058 6.67 0.14 9.23
5/22/2022 1:00:00 AM 16.62 61.916 0.058 6.67 0.14 9.23
5/22/2022 1:15:00 AM 16.62 61.916 0.058 6.65 0.33 9.23
5/22/2022 1:30:00 AM 16.59 61.862 0.058 6.62 0.18 9.22
5/22/2022 1:45:00 AM 16.56 61.808 0.058 6.65 0.2 9.22
5/22/2022 2:00:00 AM 16.53 61.754 0.058 6.63 0.24 9.23
5/22/2022 2:15:00 AM 16.51 61.718 0.058 6.65 0.11 9.23
5/22/2022 2:30:00 AM 16.5 61.7 0.058 6.66 0.29 9.23
5/22/2022 2:45:00 AM 16.47 61.646 0.058 6.66 0.18 9.23
5/22/2022 3:00:00 AM 16.46 61.628 0.058 6.67 0.21 9.24
5/22/2022 3:15:00 AM 16.43 61.574 0.058 6.67 0.14 9.25
5/22/2022 3:30:00 AM 16.41 61.538 0.058 6.68 0.31 9.25
5/22/2022 3:45:00 AM 16.38 61.484 0.058 6.65 0.24 9.25
5/22/2022 4:00:00 AM 16.35 61.43 0.058 6.68 0.14 9.26
5/22/2022 4:15:00 AM 16.32 61.376 0.058 6.68 0.17 9.26
5/22/2022 4:30:00 AM 16.28 61.304 0.058 6.68 0.16 9.27
5/22/2022 4:45:00 AM 16.25 61.25 0.058 6.69 0.09 9.28
5/22/2022 5:00:00 AM 16.22 61.196 0.058 6.69 0.2 9.29
5/22/2022 5:15:00 AM 16.18 61.124 0.058 6.63 0.24 9.29
5/22/2022 5:30:00 AM 16.15 61.07 0.058 6.69 0.16 9.31
5/22/2022 5:45:00 AM 16.12 61.016 0.058 6.69 0.31 9.32
5/22/2022 6:00:00 AM 16.09 60.962 0.058 6.65 0.18 9.33
5/22/2022 6:15:00 AM 16.06 60.908 0.058 6.66 0.22 9.36
5/22/2022 6:30:00 AM 16.03 60.854 0.058 6.69 0.07 9.38
5/22/2022 6:45:00 AM 16.01 60.818 0.058 6.68 0.14 9.4
5/22/2022 7:00:00 AM 15.99 60.782 0.058 6.7 0.08 9.43
5/22/2022 7:15:00 AM 15.99 60.782 0.058 6.72 -0.01 9.49
5/22/2022 7:30:00 AM 15.99 60.782 0.058 6.66 0.05 9.54
5/22/2022 7:45:00 AM 15.99 60.782 0.058 6.75 -0.01 9.55
5/22/2022 8:00:00 AM 15.99 60.782 0.058 6.71 0.04 9.54
5/22/2022 8:15:00 AM 15.98 60.764 0.058 6.73 0.07 9.55
5/22/2022 8:30:00 AM 15.98 60.764 0.058 6.74 -0.01 9.56
5/22/2022 8:45:00 AM 16.01 60.818 0.058 6.75 -0.01 9.58
5/22/2022 9:00:00 AM 16.06 60.908 0.058 6.75 0.03 9.6
5/22/2022 9:15:00 AM 16.11 60.998 0.058 6.76 0.02 9.61
5/22/2022 9:30:00 AM 16.17 61.106 0.058 6.81 -0.07 9.62
5/22/2022 9:45:00 AM 16.26 61.268 0.058 6.79 -0.09 9.65
5/22/2022 10:00:00 AM 16.33 61.394 0.058 6.87 -0.02 9.68
5/22/2022 10:15:00 AM 16.39 61.502 0.058 6.88 -0.02 9.68
5/22/2022 10:30:00 AM 16.43 61.574 0.058 6.87 -0.1 9.62
5/22/2022 10:45:00 AM 16.49 61.682 0.057 6.89 -0.1 9.62
5/22/2022 11:00:00 AM 16.56 61.808 0.057 6.85 -0.13 9.62
5/22/2022 11:15:00 AM 16.75 62.15 0.057 6.92 -0.07 9.64
5/22/2022 11:30:00 AM 16.91 62.438 0.057 6.9 -0.04 9.61
5/22/2022 11:45:00 AM 17.08 62.744 0.057 6.93 -0.11 9.59
5/22/2022 12:00:00 PM 17.3 63.14 0.057 6.93 -0.05 9.56
5/22/2022 12:15:00 PM 17.55 63.59 0.057 6.96 -0.07 9.52
5/22/2022 12:30:00 PM 17.83 64.094 0.057 6.98 0 9.47
5/22/2022 12:45:00 PM 18.11 64.598 0.057 6.98 -0.11 9.4
5/22/2022 1:00:00 PM 18.37 65.066 0.057 6.95 -0.1 9.34
5/22/2022 1:15:00 PM 18.6 65.48 0.057 6.98 -0.1 9.3
5/22/2022 1:30:00 PM 18.79 65.82201 0.057 6.99 -0.06 9.25
5/22/2022 1:45:00 PM 18.93 66.074 0.057 7 -0.12 9.2
5/22/2022 2:00:00 PM 19.03 66.254 0.057 6.98 0 9.17
5/22/2022 2:15:00 PM 19.09 66.362 0.057 6.99 0.09 9.14
5/22/2022 2:30:00 PM 19.14 66.452 0.057 6.93 -0.06 9.11
5/22/2022 2:45:00 PM 19.15 66.47 0.057 6.98 0.16 9.09
5/22/2022 3:00:00 PM 19.06 66.308 0.057 6.95 -0.09 9.06
5/22/2022 3:15:00 PM 19.05 66.29 0.057 6.97 -0.05 9.08
5/22/2022 3:30:00 PM 19.02 66.236 0.057 6.94 -0.05 9.04
5/22/2022 3:45:00 PM 18.94 66.092 0.058 6.9 -0.14 8.98
5/22/2022 4:00:00 PM 18.87 65.966 0.058 6.89 -0.1 8.9
5/22/2022 4:15:00 PM 18.77 65.786 0.058 6.81 -0.14 8.92
5/22/2022 4:30:00 PM 18.72 65.696 0.058 6.87 -0.08 8.96
5/22/2022 4:45:00 PM 18.72 65.696 0.058 6.88 -0.06 9.03
5/22/2022 5:00:00 PM 18.7 65.66 0.058 6.83 -0.04 9.01
5/22/2022 5:15:00 PM 18.67 65.606 0.058 6.87 -0.1 9.02
5/22/2022 5:30:00 PM 18.64 65.552 0.058 6.87 0.11 9.04
5/22/2022 5:45:00 PM 18.62 65.516 0.058 6.87 -0.07 9.06
5/22/2022 6:00:00 PM 18.59 65.462 0.058 6.8 -0.11 9.02
5/22/2022 6:15:00 PM 18.53 65.354 0.058 6.82 -0.13 8.98
5/22/2022 6:30:00 PM 18.45 65.21 0.058 6.83 -0.12 8.94
5/22/2022 6:45:00 PM 18.39 65.102 0.058 6.74 -0.09 8.93
5/22/2022 7:00:00 PM 18.33 64.994 0.058 6.8 0.01 8.91
5/22/2022 7:15:00 PM 18.27 64.886 0.058 6.8 0.08 8.91
5/22/2022 7:30:00 PM 18.18 64.724 0.058 6.79 -0.01 8.92
5/22/2022 7:45:00 PM 18.11 64.598 0.058 6.79 -0.08 8.93
5/22/2022 8:00:00 PM 18.04 64.472 0.058 6.78 0.01 8.93
5/22/2022 8:15:00 PM 17.97 64.346 0.058 6.77 0.04 8.94
5/22/2022 8:30:00 PM 17.9 64.22 0.058 6.75 0.1 8.94
5/22/2022 8:45:00 PM 17.83 64.094 0.059 6.74 0.12 8.96
5/22/2022 9:00:00 PM 17.76 63.968 0.059 6.76 0.14 8.97
5/22/2022 9:15:00 PM 17.68 63.824 0.059 6.72 0.26 8.98
5/22/2022 9:30:00 PM 17.61 63.698 0.059 6.75 0.21 8.99
5/22/2022 9:45:00 PM 17.54 63.572 0.058 6.76 0.27 9.02
5/22/2022 10:00:00 PM 17.46 63.428 0.058 6.77 0.45 9.04
5/22/2022 10:15:00 PM 17.37 63.266 0.058 6.78 0.55 9.07
5/22/2022 10:30:00 PM 17.29 63.122 0.058 6.76 0.48 9.09
5/22/2022 10:45:00 PM 17.22 62.996 0.058 6.73 0.43 9.11
5/22/2022 11:00:00 PM 17.14 62.852 0.058 6.76 0.51 9.13
5/22/2022 11:15:00 PM 17.06 62.708 0.058 6.79 0.49 9.15
5/22/2022 11:30:00 PM 16.98 62.564 0.058 6.78 0.43 9.16
5/22/2022 11:45:00 PM 16.88 62.384 0.058 6.78 0.43 9.19
5/23/2022 12:00:00 AM 16.79 62.222 0.058 6.78 0.33 9.21
5/23/2022 12:15:00 AM 16.7 62.06 0.058 6.8 0.32 9.24
5/23/2022 12:30:00 AM 16.6 61.88 0.058 6.8 0.31 9.26
5/23/2022 12:45:00 AM 16.51 61.718 0.058 6.78 0.43 9.28
5/23/2022 1:00:00 AM 16.41 61.538 0.058 6.74 0.29 9.3
5/23/2022 1:15:00 AM 16.32 61.376 0.058 6.77 0.43 9.32
5/23/2022 1:30:00 AM 16.22 61.196 0.057 6.8 0.24 9.34
5/23/2022 1:45:00 AM 16.13 61.034 0.057 6.79 0.35 9.37
5/23/2022 2:00:00 AM 16.03 60.854 0.057 6.79 0.4 9.39
5/23/2022 2:15:00 AM 15.94 60.692 0.057 6.78 0.44 9.42
5/23/2022 2:30:00 AM 15.85 60.53 0.057 6.77 0.35 9.44
5/23/2022 2:45:00 AM 15.76 60.368 0.057 6.76 0.28 9.46
5/23/2022 3:00:00 AM 15.66 60.188 0.057 6.75 0.37 9.47
5/23/2022 3:15:00 AM 15.58 60.044 0.058 6.78 0.44 9.49
5/23/2022 3:30:00 AM 15.5 59.9 0.058 6.71 0.29 9.51
5/23/2022 3:45:00 AM 15.41 59.738 0.058 6.77 0.25 9.53
5/23/2022 4:00:00 AM 15.33 59.594 0.058 6.78 0.33 9.56
5/23/2022 4:15:00 AM 15.24 59.432 0.058 6.71 0.32 9.57
5/23/2022 4:30:00 AM 15.15 59.27 0.058 6.77 0.27 9.59
5/23/2022 4:45:00 AM 15.07 59.126 0.058 6.71 0.3 9.61
5/23/2022 5:00:00 AM 14.99 58.982 0.057 6.77 0.28 9.62
5/23/2022 5:15:00 AM 14.9 58.82 0.057 6.76 0.35 9.64
5/23/2022 5:30:00 AM 14.82 58.676 0.057 6.75 0.25 9.67
5/23/2022 5:45:00 AM 14.75 58.55 0.057 6.72 0.36 9.69
5/23/2022 6:00:00 AM 14.69 58.442 0.057 6.77 0.27 9.71
5/23/2022 6:15:00 AM 14.63 58.334 0.057 6.77 0.23 9.74
5/23/2022 6:30:00 AM 14.58 58.244 0.057 6.76 0.29 9.77
5/23/2022 6:45:00 AM 14.53 58.154 0.057 6.79 0.28 9.8
5/23/2022 7:00:00 AM 14.5 58.1 0.057 6.81 0.1 9.85
5/23/2022 7:15:00 AM 14.48 58.064 0.057 6.81 0.11 9.9
5/23/2022 7:30:00 AM 14.46 58.028 0.057 6.8 0.11 9.93
5/23/2022 7:45:00 AM 14.42 57.956 0.057 6.82 0.04 9.95
5/23/2022 8:00:00 AM 14.38 57.884 0.057 6.79 0.08 9.95
5/23/2022 8:15:00 AM 14.35 57.83 0.057 6.83 0.08 9.98
5/23/2022 8:30:00 AM 14.36 57.848 0.057 6.82 0.01 10.03
5/23/2022 8:45:00 AM 14.36 57.848 0.057 6.87 0 10.05
5/23/2022 9:00:00 AM 14.35 57.83 0.057 6.88 0.06 10.05
5/23/2022 9:15:00 AM 14.35 57.83 0.057 6.87 0 10.04
5/23/2022 9:30:00 AM 14.37 57.866 0.056 6.86 -0.06 10.05
5/23/2022 9:45:00 AM 14.4 57.92 0.056 6.85 -0.01 10.06
5/23/2022 10:00:00 AM 14.46 58.028 0.056 6.87 0 10.07
5/23/2022 10:15:00 AM 14.52 58.136 0.056 6.89 -0.1 10.08
5/23/2022 10:30:00 AM 14.57 58.226 0.056 6.91 -0.06 10.1
5/23/2022 10:45:00 AM 14.68 58.424 0.056 6.9 -0.07 10.11
5/23/2022 11:00:00 AM 14.79 58.622 0.056 6.93 -0.1 10.1
5/23/2022 11:15:00 AM 14.91 58.838 0.056 6.93 -0.08 10.06
5/23/2022 11:30:00 AM 15.05 59.09 0.056 6.95 0 10.04
5/23/2022 11:45:00 AM 15.22 59.396 0.056 6.95 0 10.02
5/23/2022 12:00:00 PM 15.42 59.756 0.056 6.96 -0.06 9.98
5/23/2022 12:15:00 PM 15.61 60.098 0.055 6.97 -0.15 9.94
5/23/2022 12:30:00 PM 15.78 60.404 0.055 6.99 -0.07 9.96
5/23/2022 12:45:00 PM 15.91 60.638 0.055 7.01 -0.04 9.94
5/23/2022 1:00:00 PM 15.99 60.782 0.055 6.97 -0.08 9.9
5/23/2022 1:15:00 PM 16.01 60.818 0.055 7.02 -0.08 9.9
5/23/2022 1:30:00 PM 16.07 60.926 0.055 6.96 -0.04 9.88
5/23/2022 1:45:00 PM 16.06 60.908 0.055 7.02 -0.1 9.88
5/23/2022 2:00:00 PM 16.05 60.89 0.055 7.02 -0.09 9.87
5/23/2022 2:15:00 PM 16.04 60.872 0.055 7.01 -0.17 9.87
5/23/2022 2:30:00 PM 15.99 60.782 0.055 7.01 -0.14 9.86
5/23/2022 2:45:00 PM 15.94 60.692 0.055 7 -0.16 9.86
5/23/2022 3:00:00 PM 15.94 60.692 0.055 7 -0.15 9.85
5/23/2022 3:15:00 PM 15.92 60.656 0.055 7 -0.19 9.85
5/23/2022 3:30:00 PM 15.89 60.602 0.055 6.98 -0.11 9.83
5/23/2022 3:45:00 PM 15.83 60.494 0.056 6.99 -0.16 9.82
5/23/2022 4:00:00 PM 15.79 60.422 0.056 6.96 -0.2 9.82
5/23/2022 4:15:00 PM 15.77 60.386 0.056 6.92 -0.13 9.81
5/23/2022 4:30:00 PM 15.74 60.332 0.056 6.95 -0.09 9.8
5/23/2022 4:45:00 PM 15.71 60.278 0.056 6.94 -0.19 9.78
5/23/2022 5:00:00 PM 15.68 60.224 0.056 6.94 -0.12 9.79
5/23/2022 5:15:00 PM 15.64 60.152 0.056 6.9 -0.09 9.78
5/23/2022 5:30:00 PM 15.61 60.098 0.056 6.93 -0.01 9.76
5/23/2022 5:45:00 PM 15.55 59.99 0.056 6.9 -0.22 9.74
5/23/2022 6:00:00 PM 15.5 59.9 0.056 6.88 -0.19 9.73
5/23/2022 6:15:00 PM 15.44 59.792 0.056 6.88 -0.21 9.71
5/23/2022 6:30:00 PM 15.39 59.702 0.056 6.86 -0.19 9.7
5/23/2022 6:45:00 PM 15.32 59.576 0.056 6.82 -0.18 9.7
5/23/2022 7:00:00 PM 15.26 59.468 0.056 6.8 -0.16 9.69
5/23/2022 7:15:00 PM 15.19 59.342 0.057 6.83 -0.21 9.69
5/23/2022 7:30:00 PM 15.13 59.234 0.057 6.81 -0.19 9.68
5/23/2022 7:45:00 PM 15.06 59.108 0.057 6.8 -0.07 9.66
5/23/2022 8:00:00 PM 15 59 0.057 6.76 -0.16 9.65
5/23/2022 8:15:00 PM 14.93 58.874 0.057 6.77 -0.13 9.65
5/23/2022 8:30:00 PM 14.87 58.766 0.057 6.8 -0.1 9.66
5/23/2022 8:45:00 PM 14.81 58.658 0.057 6.8 -0.12 9.67
5/23/2022 9:00:00 PM 14.75 58.55 0.057 6.74 -0.05 9.68
5/23/2022 9:15:00 PM 14.7 58.46 0.057 6.72 -0.02 9.7
5/23/2022 9:30:00 PM 14.64 58.352 0.057 6.79 -0.07 9.71
5/23/2022 9:45:00 PM 14.59 58.262 0.057 6.73 -0.16 9.73
5/23/2022 10:00:00 PM 14.53 58.154 0.057 6.77 -0.04 9.74
5/23/2022 10:15:00 PM 14.48 58.064 0.057 6.78 -0.11 9.75
5/23/2022 10:30:00 PM 14.43 57.974 0.057 6.78 -0.06 9.76
5/23/2022 10:45:00 PM 14.39 57.902 0.057 6.78 -0.2 9.77
5/23/2022 11:00:00 PM 14.35 57.83 0.057 6.78 0.04 9.77
5/23/2022 11:15:00 PM 14.31 57.758 0.057 6.78 -0.12 9.78
5/23/2022 11:30:00 PM 14.27 57.686 0.057 6.78 -0.03 9.79
5/23/2022 11:45:00 PM 14.24 57.632 0.057 6.77 -0.13 9.8
5/24/2022 12:00:00 AM 14.2 57.56 0.057 6.78 -0.11 9.81
5/24/2022 12:15:00 AM 14.15 57.47 0.057 6.76 -0.12 9.82
5/24/2022 12:30:00 AM 14.11 57.398 0.057 6.73 -0.1 9.84
5/24/2022 12:45:00 AM 14.06 57.308 0.057 6.79 -0.14 9.85
5/24/2022 1:00:00 AM 14.01 57.218 0.057 6.77 -0.14 9.86
5/24/2022 1:15:00 AM 13.97 57.146 0.058 6.78 -0.11 9.87
5/24/2022 1:30:00 AM 13.93 57.074 0.058 6.78 -0.16 9.88
5/24/2022 1:45:00 AM 13.89 57.002 0.058 6.77 -0.11 9.89
5/24/2022 2:00:00 AM 13.85 56.93 0.058 6.78 -0.05 9.9
5/24/2022 2:15:00 AM 13.81 56.858 0.058 6.75 -0.18 9.91
5/24/2022 2:30:00 AM 13.78 56.804 0.058 6.77 -0.03 9.91
5/24/2022 2:45:00 AM 13.74 56.732 0.058 6.77 -0.13 9.92
5/24/2022 3:00:00 AM 13.7 56.66 0.058 6.77 -0.07 9.93
5/24/2022 3:15:00 AM 13.67 56.606 0.058 6.69 0 9.93
5/24/2022 3:30:00 AM 13.63 56.534 0.058 6.76 -0.08 9.94
5/24/2022 3:45:00 AM 13.58 56.444 0.058 6.77 -0.08 9.95
5/24/2022 4:00:00 AM 13.55 56.39 0.058 6.77 -0.13 9.96
5/24/2022 4:15:00 AM 13.51 56.318 0.058 6.76 -0.11 9.97
5/24/2022 4:30:00 AM 13.47 56.246 0.058 6.74 -0.14 9.98
5/24/2022 4:45:00 AM 13.42 56.156 0.058 6.75 -0.14 9.99
5/24/2022 5:00:00 AM 13.39 56.102 0.058 6.76 -0.19 10
5/24/2022 5:15:00 AM 13.35 56.03 0.058 6.74 -0.17 10.01
5/24/2022 5:30:00 AM 13.31 55.958 0.058 6.77 -0.02 10.02
5/24/2022 5:45:00 AM 13.28 55.904 0.058 6.77 -0.15 10.03
5/24/2022 6:00:00 AM 13.25 55.85 0.058 6.76 -0.14 10.04
5/24/2022 6:15:00 AM 13.22 55.796 0.058 6.77 0 10.06
5/24/2022 6:30:00 AM 13.2 55.76 0.058 6.72 -0.06 10.08
5/24/2022 6:45:00 AM 13.18 55.724 0.058 6.75 -0.2 10.09
5/24/2022 7:00:00 AM 13.17 55.706 0.058 6.77 0.01 10.1
5/24/2022 7:15:00 AM 13.15 55.67 0.058 6.77 -0.17 10.12
5/24/2022 7:30:00 AM 13.15 55.67 0.058 6.7 -0.09 10.15
5/24/2022 7:45:00 AM 13.15 55.67 0.058 6.79 -0.2 10.19
5/24/2022 8:00:00 AM 13.17 55.706 0.058 6.81 -0.2 10.25
5/24/2022 8:15:00 AM 13.19 55.742 0.058 6.84 -0.26 10.3
5/24/2022 8:30:00 AM 13.21 55.778 0.058 6.84 -0.21 10.31
5/24/2022 8:45:00 AM 13.24 55.832 0.058 6.88 -0.19 10.35
5/24/2022 9:00:00 AM 13.27 55.886 0.058 6.89 -0.21 10.37
5/24/2022 9:15:00 AM 13.3 55.94 0.057 6.89 -0.17 10.36
5/24/2022 9:30:00 AM 13.32 55.976 0.057 6.9 -0.12 10.34
5/24/2022 9:45:00 AM 13.34 56.012 0.058 6.84 -0.2 10.33
5/24/2022 10:00:00 AM 13.36 56.048 0.058 6.9 -0.18 10.33
5/24/2022 10:15:00 AM 13.37 56.066 0.057 6.86 -0.18 10.34
5/24/2022 10:30:00 AM 13.41 56.138 0.057 6.92 -0.23 10.37
5/24/2022 10:45:00 AM 13.45 56.21 0.057 6.91 -0.15 10.39
5/24/2022 11:00:00 AM 13.49 56.282 0.057 6.95 -0.23 10.39
5/24/2022 11:15:00 AM 13.55 56.39 0.057 6.97 -0.28 10.4
5/24/2022 11:30:00 AM 13.61 56.498 0.057 6.9 -0.23 10.41
5/24/2022 11:45:00 AM 13.7 56.66 0.057 6.99 -0.25 10.41
5/24/2022 12:00:00 PM 13.79 56.822 0.057 6.97 -0.09 10.41
5/24/2022 12:15:00 PM 13.84 56.912 0.057 7 -0.08 10.35
5/24/2022 12:30:00 PM 13.89 57.002 0.057 6.99 0.8 10.33
5/24/2022 12:45:00 PM 13.93 57.074 0.057 6.97 -0.11 10.29
5/24/2022 1:00:00 PM 13.97 57.146 0.057 6.97 -0.2 10.3
5/24/2022 1:15:00 PM 13.99 57.182 0.057 6.97 -0.12 10.26
5/24/2022 1:30:00 PM 14 57.2 0.057 6.95 -0.23 10.21
5/24/2022 1:45:00 PM 14.01 57.218 0.057 6.88 -0.31 10.17
5/24/2022 2:00:00 PM 14.01 57.218 0.057 6.93 -0.15 10.19
5/24/2022 2:15:00 PM 14 57.2 0.057 6.92 -0.24 10.15
5/24/2022 2:30:00 PM 13.99 57.182 0.057 6.9 -0.26 10.11
5/24/2022 2:45:00 PM 13.98 57.164 0.057 6.91 -0.24 10.13
5/24/2022 3:00:00 PM 13.99 57.182 0.057 6.84 -0.23 10.16
5/24/2022 3:15:00 PM 13.99 57.182 0.058 6.92 -0.13 10.16
5/24/2022 3:30:00 PM 14 57.2 0.058 6.92 -0.17 10.18
5/24/2022 3:45:00 PM 14.02 57.236 0.058 6.92 -0.21 10.18
5/24/2022 4:00:00 PM 14.01 57.218 0.058 6.92 -0.23 10.13
5/24/2022 4:15:00 PM 14 57.2 0.058 6.9 -0.2 10.12
5/24/2022 4:30:00 PM 14.02 57.236 0.058 6.9 -0.2 10.14
5/24/2022 4:45:00 PM 14.02 57.236 0.058 6.87 -0.28 10.16
5/24/2022 5:00:00 PM 14.05 57.29 0.058 6.93 -0.24 10.17
5/24/2022 5:15:00 PM 14.07 57.326 0.058 6.94 -0.19 10.18
5/24/2022 5:30:00 PM 14.08 57.344 0.058 6.92 -0.19 10.16
5/24/2022 5:45:00 PM 14.09 57.362 0.058 6.93 -0.28 10.14
5/24/2022 6:00:00 PM 14.09 57.362 0.058 6.91 -0.22 10.11
5/24/2022 6:15:00 PM 14.08 57.344 0.058 6.89 -0.22 10.09
5/24/2022 6:30:00 PM 14.08 57.344 0.058 6.88 -0.21 10.07
5/24/2022 6:45:00 PM 14.08 57.344 0.058 6.87 -0.26 10.06
5/24/2022 7:00:00 PM 14.06 57.308 0.058 6.87 -0.22 10.02
5/24/2022 7:15:00 PM 14.05 57.29 0.058 6.84 -0.28 9.97
5/24/2022 7:30:00 PM 14.02 57.236 0.058 6.83 -0.26 9.95
5/24/2022 7:45:00 PM 14 57.2 0.058 6.81 -0.12 9.94
5/24/2022 8:00:00 PM 13.97 57.146 0.058 6.79 -0.25 9.93
5/24/2022 8:15:00 PM 13.95 57.11 0.059 6.79 -0.21 9.93
5/24/2022 8:30:00 PM 13.92 57.056 0.059 6.76 -0.22 9.92
5/24/2022 8:45:00 PM 13.89 57.002 0.059 6.78 -0.12 9.92
5/24/2022 9:00:00 PM 13.87 56.966 0.059 6.76 -0.14 9.92
5/24/2022 9:15:00 PM 13.84 56.912 0.059 6.76 -0.11 9.92
5/24/2022 9:30:00 PM 13.82 56.876 0.059 6.78 -0.17 9.93
5/24/2022 9:45:00 PM 13.79 56.822 0.059 6.76 -0.14 9.93
5/24/2022 10:00:00 PM 13.77 56.786 0.059 6.73 -0.16 9.94
5/24/2022 10:15:00 PM 13.74 56.732 0.059 6.77 0 9.94
5/24/2022 10:30:00 PM 13.72 56.696 0.059 6.77 -0.11 9.94
5/24/2022 10:45:00 PM 13.7 56.66 0.059 6.77 -0.13 9.95
5/24/2022 11:00:00 PM 13.67 56.606 0.059 6.75 -0.23 9.95
5/24/2022 11:15:00 PM 13.65 56.57 0.059 6.77 -0.04 9.95
5/24/2022 11:30:00 PM 13.63 56.534 0.059 6.77 -0.2 9.96
5/24/2022 11:45:00 PM 13.61 56.498 0.059 6.77 -0.12 9.97
5/25/2022 12:00:00 AM 13.58 56.444 0.059 6.74 -0.2 9.97
5/25/2022 12:15:00 AM 13.56 56.408 0.059 6.77 -0.16 9.98
5/25/2022 12:30:00 AM 13.53 56.354 0.059 6.78 -0.15 9.98
5/25/2022 12:45:00 AM 13.5 56.3 0.059 6.78 -0.19 9.99
5/25/2022 1:00:00 AM 13.46 56.228 0.059 6.78 -0.18 10
5/25/2022 1:15:00 AM 13.42 56.156 0.059 6.78 -0.17 10.01
5/25/2022 1:30:00 AM 13.38 56.084 0.059 6.78 -0.21 10.03
5/25/2022 1:45:00 AM 13.35 56.03 0.059 6.78 -0.25 10.04
5/25/2022 2:00:00 AM 13.31 55.958 0.059 6.75 -0.2 10.05
5/25/2022 2:15:00 AM 13.28 55.904 0.059 6.78 -0.24 10.05
5/25/2022 2:30:00 AM 13.24 55.832 0.059 6.78 -0.17 10.06
5/25/2022 2:45:00 AM 13.21 55.778 0.059 6.77 -0.25 10.07
5/25/2022 3:00:00 AM 13.17 55.706 0.059 6.77 -0.26 10.08
5/25/2022 3:15:00 AM 13.13 55.634 0.059 6.73 -0.22 10.09
5/25/2022 3:30:00 AM 13.09 55.562 0.059 6.77 -0.2 10.1
5/25/2022 3:45:00 AM 13.05 55.49 0.059 6.77 -0.2 10.1
5/25/2022 4:00:00 AM 13.02 55.436 0.059 6.76 -0.27 10.11
5/25/2022 4:15:00 AM 12.98 55.364 0.059 6.77 -0.18 10.12
5/25/2022 4:30:00 AM 12.94 55.292 0.059 6.76 -0.22 10.13
5/25/2022 4:45:00 AM 12.89 55.202 0.059 6.73 -0.29 10.14
5/25/2022 5:00:00 AM 12.85 55.13 0.059 6.78 -0.21 10.15
5/25/2022 5:15:00 AM 12.8 55.04 0.059 6.77 -0.1 10.17
5/25/2022 5:30:00 AM 12.76 54.968 0.059 6.77 -0.17 10.18
5/25/2022 5:45:00 AM 12.71 54.878 0.059 6.75 -0.13 10.2
5/25/2022 6:00:00 AM 12.66 54.788 0.059 6.77 -0.1 10.22
5/25/2022 6:15:00 AM 12.63 54.734 0.059 6.76 -0.16 10.25
5/25/2022 6:30:00 AM 12.59 54.662 0.059 6.78 -0.25 10.28
5/25/2022 6:45:00 AM 12.57 54.626 0.059 6.78 -0.21 10.31
5/25/2022 7:00:00 AM 12.55 54.59 0.059 6.79 -0.22 10.34
5/25/2022 7:15:00 AM 12.54 54.572 0.059 6.79 -0.22 10.35
5/25/2022 7:30:00 AM 12.53 54.554 0.059 6.81 -0.27 10.36
5/25/2022 7:45:00 AM 12.53 54.554 0.059 6.81 -0.28 10.38
5/25/2022 8:00:00 AM 12.54 54.572 0.059 6.79 -0.25 10.4
5/25/2022 8:15:00 AM 12.57 54.626 0.059 6.81 -0.28 10.42
5/25/2022 8:30:00 AM 12.59 54.662 0.059 6.85 -0.25 10.43
5/25/2022 8:45:00 AM 12.63 54.734 0.059 6.86 -0.32 10.46
5/25/2022 9:00:00 AM 12.68 54.824 0.059 6.87 -0.23 10.48
5/25/2022 9:15:00 AM 12.73 54.914 0.059 6.89 -0.3 10.48
5/25/2022 9:30:00 AM 12.79 55.022 0.059 6.9 -0.22 10.49
5/25/2022 9:45:00 AM 12.87 55.166 0.059 6.9 -0.26 10.49
5/25/2022 10:00:00 AM 12.97 55.346 0.058 6.92 -0.25 10.49
5/25/2022 10:15:00 AM 13.07 55.526 0.058 6.94 -0.23 10.49
5/25/2022 10:30:00 AM 13.19 55.742 0.058 6.89 -0.19 10.5
5/25/2022 10:45:00 AM 13.3 55.94 0.058 6.96 -0.24 10.49
5/25/2022 11:00:00 AM 13.45 56.21 0.058 6.97 -0.27 10.47
5/25/2022 11:15:00 AM 13.62 56.516 0.058 6.97 -0.24 10.43
5/25/2022 11:30:00 AM 13.79 56.822 0.058 6.98 -0.16 10.4
5/25/2022 11:45:00 AM 14.01 57.218 0.058 6.98 -0.18 10.34
5/25/2022 12:00:00 PM 14.24 57.632 0.058 6.99 -0.25 10.29
5/25/2022 12:15:00 PM 14.5 58.1 0.058 6.99 -0.22 10.24
5/25/2022 12:30:00 PM 14.76 58.568 0.058 7.01 -0.18 10.19
5/25/2022 12:45:00 PM 15.03 59.054 0.058 7.01 -0.14 10.13
5/25/2022 1:00:00 PM 15.28 59.504 0.058 7.02 -0.19 10.08
5/25/2022 1:15:00 PM 15.52 59.936 0.058 7.02 -0.18 10.02
5/25/2022 1:30:00 PM 15.71 60.278 0.058 6.98 -0.15 9.96
5/25/2022 1:45:00 PM 15.85 60.53 0.058 7.03 -0.17 9.94
5/25/2022 2:00:00 PM 15.93 60.674 0.058 7.04 -0.15 9.93
5/25/2022 2:15:00 PM 15.97 60.746 0.058 6.99 -0.09 9.91
5/25/2022 2:30:00 PM 15.99 60.782 0.058 7.03 -0.15 9.9
5/25/2022 2:45:00 PM 15.99 60.782 0.058 7.04 -0.22 9.91
5/25/2022 3:00:00 PM 15.97 60.746 0.058 7.05 -0.18 9.91
5/25/2022 3:15:00 PM 15.96 60.728 0.058 7.05 -0.21 9.9
5/25/2022 3:30:00 PM 15.91 60.638 0.058 7 -0.17 9.88
5/25/2022 3:45:00 PM 15.85 60.53 0.058 7.02 -0.24 9.83
5/25/2022 4:00:00 PM 15.8 60.44 0.058 6.99 -0.26 9.79
5/25/2022 4:15:00 PM 15.75 60.35 0.058 6.96 -0.16 9.77
5/25/2022 4:30:00 PM 15.7 60.26 0.058 6.92 -0.11 9.75
5/25/2022 4:45:00 PM 15.66 60.188 0.058 6.95 -0.2 9.75
5/25/2022 5:00:00 PM 15.63 60.134 0.058 6.92 -0.21 9.72
5/25/2022 5:15:00 PM 15.61 60.098 0.058 6.93 -0.19 9.7
5/25/2022 5:30:00 PM 15.58 60.044 0.058 6.9 -0.2 9.69
5/25/2022 5:45:00 PM 15.56 60.008 0.058 6.91 -0.2 9.67
5/25/2022 6:00:00 PM 15.53 59.954 0.059 6.9 -0.19 9.66
5/25/2022 6:15:00 PM 15.49 59.882 0.059 6.9 -0.26 9.66
5/25/2022 6:30:00 PM 15.45 59.81 0.059 6.86 -0.26 9.66
5/25/2022 6:45:00 PM 15.41 59.738 0.059 6.85 -0.1 9.66
5/25/2022 7:00:00 PM 15.37 59.666 0.059 6.84 -0.18 9.67
5/25/2022 7:15:00 PM 15.34 59.612 0.059 6.87 -0.1 9.66
5/25/2022 7:30:00 PM 15.29 59.522 0.059 6.85 -0.19 9.65
5/25/2022 7:45:00 PM 15.24 59.432 0.059 6.84 -0.21 9.65
5/25/2022 8:00:00 PM 15.19 59.342 0.059 6.83 -0.22 9.64
5/25/2022 8:15:00 PM 15.14 59.252 0.059 6.82 -0.26 9.63
5/25/2022 8:30:00 PM 15.08 59.144 0.059 6.73 -0.17 9.62
5/25/2022 8:45:00 PM 15.02 59.036 0.059 6.8 -0.12 9.62
5/25/2022 9:00:00 PM 14.96 58.928 0.059 6.81 -0.06 9.63
5/25/2022 9:15:00 PM 14.9 58.82 0.06 6.8 0.01 9.64
5/25/2022 9:30:00 PM 14.84 58.712 0.06 6.8 -0.13 9.66
5/25/2022 9:45:00 PM 14.78 58.604 0.06 6.78 -0.15 9.68
5/25/2022 10:00:00 PM 14.72 58.496 0.06 6.79 -0.12 9.69
5/25/2022 10:15:00 PM 14.67 58.406 0.06 6.78 -0.19 9.71
5/25/2022 10:30:00 PM 14.62 58.316 0.06 6.77 -0.19 9.72
5/25/2022 10:45:00 PM 14.58 58.244 0.06 6.77 -0.17 9.73
5/25/2022 11:00:00 PM 14.53 58.154 0.06 6.74 -0.11 9.74
5/25/2022 11:15:00 PM 14.48 58.064 0.06 6.78 -0.2 9.75
5/25/2022 11:30:00 PM 14.44 57.992 0.06 6.77 -0.19 9.76
5/25/2022 11:45:00 PM 14.4 57.92 0.06 6.75 -0.21 9.76
5/26/2022 12:00:00 AM 14.36 57.848 0.06 6.78 -0.12 9.77
5/26/2022 12:15:00 AM 14.33 57.794 0.06 6.77 -0.14 9.77
5/26/2022 12:30:00 AM 14.29 57.722 0.06 6.74 -0.1 9.78
5/26/2022 12:45:00 AM 14.26 57.668 0.06 6.78 -0.13 9.79
5/26/2022 1:00:00 AM 14.23 57.614 0.06 6.77 -0.09 9.8
5/26/2022 1:15:00 AM 14.2 57.56 0.06 6.77 -0.16 9.81
5/26/2022 1:30:00 AM 14.18 57.524 0.06 6.78 -0.19 9.81
5/26/2022 1:45:00 AM 14.15 57.47 0.06 6.74 -0.19 9.82
5/26/2022 2:00:00 AM 14.12 57.416 0.06 6.77 -0.11 9.83
5/26/2022 2:15:00 AM 14.09 57.362 0.06 6.77 -0.1 9.84
5/26/2022 2:30:00 AM 14.06 57.308 0.06 6.78 -0.22 9.84
5/26/2022 2:45:00 AM 14.03 57.254 0.06 6.78 -0.16 9.85
5/26/2022 3:00:00 AM 14.01 57.218 0.06 6.77 -0.2 9.85
5/26/2022 3:15:00 AM 13.98 57.164 0.06 6.78 -0.13 9.85
5/26/2022 3:30:00 AM 13.96 57.128 0.06 6.76 -0.14 9.86
5/26/2022 3:45:00 AM 13.93 57.074 0.06 6.78 -0.09 9.87
5/26/2022 4:00:00 AM 13.9 57.02 0.06 6.77 0.13 9.87
5/26/2022 4:15:00 AM 13.87 56.966 0.06 6.77 -0.18 9.88
5/26/2022 4:30:00 AM 13.84 56.912 0.06 6.77 -0.11 9.89
5/26/2022 4:45:00 AM 13.81 56.858 0.06 6.77 -0.1 9.89
5/26/2022 5:00:00 AM 13.78 56.804 0.06 6.78 -0.13 9.9
5/26/2022 5:15:00 AM 13.75 56.75 0.06 6.76 0.02 9.9
5/26/2022 5:30:00 AM 13.72 56.696 0.06 6.78 0.15 9.9
5/26/2022 5:45:00 AM 13.69 56.642 0.06 6.76 0.03 9.91
5/26/2022 6:00:00 AM 13.66 56.588 0.06 6.79 -0.08 9.92
5/26/2022 6:15:00 AM 13.63 56.534 0.06 6.76 -0.08 9.95
5/26/2022 6:30:00 AM 13.61 56.498 0.06 6.81 -0.01 9.98
5/26/2022 6:45:00 AM 13.58 56.444 0.06 6.81 -0.13 10.02
5/26/2022 7:00:00 AM 13.56 56.408 0.06 6.83 -0.04 10.06
5/26/2022 7:15:00 AM 13.54 56.372 0.06 6.83 0 10.09
5/26/2022 7:30:00 AM 13.53 56.354 0.06 6.78 -0.1 10.12
5/26/2022 7:45:00 AM 13.51 56.318 0.06 6.86 -0.12 10.14
5/26/2022 8:00:00 AM 13.5 56.3 0.06 6.85 -0.15 10.14
5/26/2022 8:15:00 AM 13.49 56.282 0.06 6.87 -0.14 10.14
5/26/2022 8:30:00 AM 13.49 56.282 0.06 6.87 -0.24 10.18
5/26/2022 8:45:00 AM 13.5 56.3 0.059 6.89 -0.2 10.24
5/26/2022 9:00:00 AM 13.51 56.318 0.059 6.91 -0.22 10.28
5/26/2022 9:15:00 AM 13.54 56.372 0.059 6.94 -0.17 10.32
5/26/2022 9:30:00 AM 13.59 56.462 0.059 6.96 -0.22 10.34
5/26/2022 9:45:00 AM 13.62 56.516 0.059 6.96 -0.22 10.35
5/26/2022 10:00:00 AM 13.67 56.606 0.059 6.98 -0.23 10.36
5/26/2022 10:15:00 AM 13.71 56.678 0.059 7 -0.14 10.36
5/26/2022 10:30:00 AM 13.74 56.732 0.059 6.98 -0.28 10.33
5/26/2022 10:45:00 AM 13.79 56.822 0.059 6.99 -0.24 10.34
5/26/2022 11:00:00 AM 13.84 56.912 0.059 7.01 -0.24 10.33
5/26/2022 11:15:00 AM 13.89 57.002 0.059 7.03 -0.29 10.34
5/26/2022 11:30:00 AM 13.94 57.092 0.059 6.99 -0.25 10.32
5/26/2022 11:45:00 AM 13.99 57.182 0.059 7 -0.23 10.32
5/26/2022 12:00:00 PM 14.03 57.254 0.059 7.03 -0.23 10.3
5/26/2022 12:15:00 PM 14.07 57.326 0.059 7.03 -0.13 10.28
5/26/2022 12:30:00 PM 14.13 57.434 0.059 7.05 -0.3 10.28
5/26/2022 12:45:00 PM 14.18 57.524 0.059 7.02 -0.2 10.26
5/26/2022 1:00:00 PM 14.22 57.596 0.059 7.04 -0.24 10.24
5/26/2022 1:15:00 PM 14.29 57.722 0.059 7.02 -0.2 10.22
5/26/2022 1:30:00 PM 14.33 57.794 0.059 7.04 -0.23 10.2
5/26/2022 1:45:00 PM 14.39 57.902 0.059 7.05 -0.24 10.2
5/26/2022 2:00:00 PM 14.42 57.956 0.059 6.99 -0.22 10.16
5/26/2022 2:15:00 PM 14.45 58.01 0.059 7.02 -0.22 10.13
5/26/2022 2:30:00 PM 14.48 58.064 0.059 6.98 -0.19 10.09
5/26/2022 2:45:00 PM 14.5 58.1 0.059 6.99 -0.19 10.06
5/26/2022 3:00:00 PM 14.52 58.136 0.059 6.96 -0.24 10.05
5/26/2022 3:15:00 PM 14.55 58.19 0.059 6.97 -0.22 10.04
5/26/2022 3:30:00 PM 14.56 58.208 0.059 6.96 -0.09 10.01
5/26/2022 3:45:00 PM 14.56 58.208 0.059 6.93 -0.16 9.97
5/26/2022 4:00:00 PM 14.56 58.208 0.059 6.93 -0.21 9.94
5/26/2022 4:15:00 PM 14.56 58.208 0.059 6.9 -0.28 9.92
5/26/2022 4:30:00 PM 14.56 58.208 0.059 6.91 -0.21 9.91
5/26/2022 4:45:00 PM 14.56 58.208 0.059 6.85 -0.21 9.89
5/26/2022 5:00:00 PM 14.56 58.208 0.06 6.9 -0.3 9.86
5/26/2022 5:15:00 PM 14.55 58.19 0.06 6.88 -0.25 9.84
5/26/2022 5:30:00 PM 14.54 58.172 0.06 6.88 -0.15 9.83
5/26/2022 5:45:00 PM 14.53 58.154 0.06 6.87 -0.24 9.82
5/26/2022 6:00:00 PM 14.51 58.118 0.06 6.84 -0.26 9.8
5/26/2022 6:15:00 PM 14.5 58.1 0.06 6.85 -0.27 9.8
5/26/2022 6:30:00 PM 14.49 58.082 0.06 6.82 -0.16 9.79
5/26/2022 6:45:00 PM 14.47 58.046 0.06 6.83 -0.19 9.77
5/26/2022 7:00:00 PM 14.46 58.028 0.061 6.8 -0.16 9.75
5/26/2022 7:15:00 PM 14.44 57.992 0.061 6.81 -0.24 9.74
5/26/2022 7:30:00 PM 14.42 57.956 0.061 6.77 -0.15 9.73
5/26/2022 7:45:00 PM 14.4 57.92 0.061 6.79 -0.21 9.71
5/26/2022 8:00:00 PM 14.38 57.884 0.061 6.79 -0.17 9.71
5/26/2022 8:15:00 PM 14.36 57.848 0.061 6.78 -0.15 9.71
5/26/2022 8:30:00 PM 14.34 57.812 0.061 6.78 -0.12 9.7
5/26/2022 8:45:00 PM 14.33 57.794 0.061 6.73 -0.14 9.7
5/26/2022 9:00:00 PM 14.31 57.758 0.061 6.78 -0.16 9.7
5/26/2022 9:15:00 PM 14.29 57.722 0.061 6.77 -0.04 9.71
5/26/2022 9:30:00 PM 14.27 57.686 0.061 6.75 -0.15 9.71
5/26/2022 9:45:00 PM 14.25 57.65 0.061 6.72 -0.24 9.72
5/26/2022 10:00:00 PM 14.23 57.614 0.061 6.77 -0.14 9.72
5/26/2022 10:15:00 PM 14.22 57.596 0.061 6.75 -0.2 9.73
5/26/2022 10:30:00 PM 14.2 57.56 0.061 6.75 -0.16 9.73
5/26/2022 10:45:00 PM 14.18 57.524 0.061 6.74 -0.11 9.74
5/26/2022 11:00:00 PM 14.17 57.506 0.061 6.75 -0.12 9.74
5/26/2022 11:15:00 PM 14.15 57.47 0.061 6.75 -0.13 9.74
5/26/2022 11:30:00 PM 14.13 57.434 0.062 6.74 -0.09 9.75
5/26/2022 11:45:00 PM 14.11 57.398 0.062 6.69 -0.03 9.75
5/27/2022 12:00:00 AM 14.09 57.362 0.062 6.7 -0.14 9.75
5/27/2022 12:15:00 AM 14.08 57.344 0.062 6.7 -0.04 9.74
5/27/2022 12:30:00 AM 14.06 57.308 0.062 6.69 -0.02 9.74
5/27/2022 12:45:00 AM 14.05 57.29 0.062 6.7 -0.14 9.74
5/27/2022 1:00:00 AM 14.03 57.254 0.062 6.69 -0.04 9.74
5/27/2022 1:15:00 AM 14.02 57.236 0.062 6.69 -0.11 9.74
5/27/2022 1:30:00 AM 14 57.2 0.062 6.68 -0.07 9.75
5/27/2022 1:45:00 AM 13.99 57.182 0.062 6.69 0.03 9.75
5/27/2022 2:00:00 AM 13.98 57.164 0.062 6.62 -0.02 9.75
5/27/2022 2:15:00 AM 13.97 57.146 0.062 6.7 -0.08 9.76
5/27/2022 2:30:00 AM 13.96 57.128 0.062 6.63 -0.12 9.76
5/27/2022 2:45:00 AM 13.95 57.11 0.062 6.69 -0.15 9.76
5/27/2022 3:00:00 AM 13.94 57.092 0.062 6.68 -0.05 9.77
5/27/2022 3:15:00 AM 13.93 57.074 0.062 6.64 -0.12 9.77
5/27/2022 3:30:00 AM 13.92 57.056 0.062 6.7 -0.11 9.77
5/27/2022 3:45:00 AM 13.91 57.038 0.062 6.63 -0.12 9.78
5/27/2022 4:00:00 AM 13.91 57.038 0.062 6.68 -0.06 9.77
5/27/2022 4:15:00 AM 13.9 57.02 0.062 6.64 -0.12 9.78
5/27/2022 4:30:00 AM 13.89 57.002 0.062 6.67 -0.09 9.78
5/27/2022 4:45:00 AM 13.88 56.984 0.062 6.66 -0.16 9.78
5/27/2022 5:00:00 AM 13.88 56.984 0.062 6.65 -0.06 9.78
5/27/2022 5:15:00 AM 13.87 56.966 0.062 6.68 -0.03 9.78
5/27/2022 5:30:00 AM 13.87 56.966 0.061 6.63 0.08 9.78
5/27/2022 5:45:00 AM 13.85 56.93 0.061 6.66 0.07 9.78
5/27/2022 6:00:00 AM 13.85 56.93 0.061 6.67 -0.02 9.79
5/27/2022 6:15:00 AM 13.85 56.93 0.061 6.67 0.08 9.79
5/27/2022 6:30:00 AM 13.84 56.912 0.061 6.67 -0.04 9.8
5/27/2022 6:45:00 AM 13.84 56.912 0.061 6.64 0.05 9.81
5/27/2022 7:00:00 AM 13.84 56.912 0.061 6.69 -0.02 9.82
5/27/2022 7:15:00 AM 13.84 56.912 0.061 6.69 -0.02 9.82
5/27/2022 7:30:00 AM 13.84 56.912 0.061 6.69 -0.06 9.82
5/27/2022 7:45:00 AM 13.84 56.912 0.061 6.69 -0.11 9.84
5/27/2022 8:00:00 AM 13.84 56.912 0.061 6.69 -0.07 9.85
5/27/2022 8:15:00 AM 13.85 56.93 0.061 6.7 -0.05 9.88
5/27/2022 8:30:00 AM 13.86 56.948 0.061 6.69 -0.08 9.9
5/27/2022 8:45:00 AM 13.86 56.948 0.061 6.68 -0.08 9.89
5/27/2022 9:00:00 AM 13.87 56.966 0.061 6.71 -0.14 9.9
5/27/2022 9:15:00 AM 13.88 56.984 0.06 6.7 -0.12 9.92
5/27/2022 9:30:00 AM 13.88 56.984 0.06 6.7 0.06 9.91
5/27/2022 9:45:00 AM 13.89 57.002 0.06 6.69 0.01 9.89
5/27/2022 10:00:00 AM 13.9 57.02 0.06 6.69 -0.09 9.9
5/27/2022 10:15:00 AM 13.91 57.038 0.06 6.71 -0.15 9.91
5/27/2022 10:30:00 AM 13.94 57.092 0.06 6.71 -0.07 9.95
5/27/2022 10:45:00 AM 13.98 57.164 0.06 6.73 -0.13 10.01
5/27/2022 11:00:00 AM 14.01 57.218 0.06 6.76 -0.07 10.03
5/27/2022 11:15:00 AM 14.04 57.272 0.06 6.77 -0.12 10.01
5/27/2022 11:30:00 AM 14.07 57.326 0.06 6.8 -0.13 10.02
5/27/2022 11:45:00 AM 14.11 57.398 0.06 6.78 -0.05 10.04
5/27/2022 12:00:00 PM 14.12 57.416 0.059 6.83 -0.06 9.96
5/27/2022 12:15:00 PM 14.17 57.506 0.059 6.85 -0.17 10.03
5/27/2022 12:30:00 PM 14.21 57.578 0.059 6.87 -0.12 9.99
5/27/2022 12:45:00 PM 14.25 57.65 0.059 6.88 -0.12 10
5/27/2022 1:00:00 PM 14.31 57.758 0.059 6.89 -0.06 9.99
5/27/2022 1:15:00 PM 14.33 57.794 0.059 6.88 -0.1 9.92
5/27/2022 1:30:00 PM 14.35 57.83 0.059 6.88 -0.05 9.89
5/27/2022 1:45:00 PM 14.37 57.866 0.059 6.88 -0.19 9.88
5/27/2022 2:00:00 PM 14.39 57.902 0.059 6.88 -0.17 9.89
5/27/2022 2:15:00 PM 14.41 57.938 0.059 6.87 -0.03 9.83
5/27/2022 2:30:00 PM 14.44 57.992 0.059 6.85 0.17 9.78
5/27/2022 2:45:00 PM 14.52 58.136 0.058 6.82 0.21 9.71
5/27/2022 3:00:00 PM 14.54 58.172 0.058 6.81 0.26 9.71
5/27/2022 3:15:00 PM 14.57 58.226 0.057 6.83 0.18 9.79
5/27/2022 3:30:00 PM 14.61 58.298 0.057 6.85 0.24 9.84
5/27/2022 3:45:00 PM 14.66 58.388 0.057 6.87 0.25 9.88
5/27/2022 4:00:00 PM 14.73 58.514 0.057 6.89 0.44 9.9
5/27/2022 4:15:00 PM 14.77 58.586 0.057 6.9 0.57 9.9
5/27/2022 4:30:00 PM 14.83 58.694 0.057 6.91 0.71 9.87
5/27/2022 4:45:00 PM 14.87 58.766 0.057 6.91 0.57 9.84
5/27/2022 5:00:00 PM 14.91 58.838 0.057 6.91 0.55 9.84
5/27/2022 5:15:00 PM 14.94 58.892 0.057 6.91 0.82 9.82
5/27/2022 5:30:00 PM 14.97 58.946 0.057 6.89 0.89 9.79
5/27/2022 5:45:00 PM 14.99 58.982 0.057 6.91 0.93 9.78
5/27/2022 6:00:00 PM 15.02 59.036 0.057 6.85 0.91 9.77
5/27/2022 6:15:00 PM 15.02 59.036 0.057 6.89 0.99 9.7
5/27/2022 6:30:00 PM 15.02 59.036 0.057 6.84 0.91 9.63
5/27/2022 6:45:00 PM 15.02 59.036 0.057 6.83 0.72 9.64
5/27/2022 7:00:00 PM 15.03 59.054 0.057 6.85 0.79 9.62
5/27/2022 7:15:00 PM 15.02 59.036 0.057 6.84 0.69 9.61
5/27/2022 7:30:00 PM 15.01 59.018 0.057 6.81 0.61 9.59
5/27/2022 7:45:00 PM 14.98 58.964 0.057 6.81 0.59 9.57
5/27/2022 8:00:00 PM 14.95 58.91 0.058 6.79 0.71 9.56
5/27/2022 8:15:00 PM 14.93 58.874 0.058 6.79 0.56 9.55
5/27/2022 8:30:00 PM 14.9 58.82 0.058 6.77 0.99 9.53
5/27/2022 8:45:00 PM 14.87 58.766 0.058 6.74 0.57 9.52
5/27/2022 9:00:00 PM 14.85 58.73 0.058 6.73 0.46 9.53
5/27/2022 9:15:00 PM 14.82 58.676 0.058 6.76 0.54 9.53
5/27/2022 9:30:00 PM 14.8 58.64 0.057 6.75 0.61 9.54
5/27/2022 9:45:00 PM 14.78 58.604 0.057 6.73 0.69 9.55
5/27/2022 10:00:00 PM 14.77 58.586 0.057 6.72 0.7 9.55
5/27/2022 10:15:00 PM 14.75 58.55 0.057 6.7 0.66 9.56
5/27/2022 10:30:00 PM 14.73 58.514 0.058 6.71 0.58 9.56
5/27/2022 10:45:00 PM 14.72 58.496 0.058 6.71 0.58 9.57
5/27/2022 11:00:00 PM 14.71 58.478 0.058 6.69 0.61 9.57
5/27/2022 11:15:00 PM 14.69 58.442 0.058 6.71 0.55 9.57
5/27/2022 11:30:00 PM 14.68 58.424 0.058 6.69 0.61 9.57
5/27/2022 11:45:00 PM 14.67 58.406 0.058 6.69 0.63 9.57
5/28/2022 12:00:00 AM 14.66 58.388 0.058 6.68 0.76 9.58
5/28/2022 12:15:00 AM 14.64 58.352 0.058 6.68 0.47 9.58
5/28/2022 12:30:00 AM 14.64 58.352 0.058 6.68 0.45 9.58
5/28/2022 12:45:00 AM 14.63 58.334 0.058 6.66 0.45 9.58
5/28/2022 1:00:00 AM 14.62 58.316 0.058 6.68 0.48 9.58
5/28/2022 1:15:00 AM 14.61 58.298 0.058 6.67 0.44 9.58
5/28/2022 1:30:00 AM 14.6 58.28 0.059 6.67 0.39 9.58
5/28/2022 1:45:00 AM 14.59 58.262 0.059 6.67 0.38 9.58
5/28/2022 2:00:00 AM 14.58 58.244 0.059 6.65 0.39 9.58
5/28/2022 2:15:00 AM 14.57 58.226 0.059 6.65 0.29 9.59
5/28/2022 2:30:00 AM 14.56 58.208 0.059 6.65 0.36 9.59
5/28/2022 2:45:00 AM 14.55 58.19 0.059 6.65 0.36 9.58
5/28/2022 3:00:00 AM 14.54 58.172 0.059 6.64 0.47 9.58
5/28/2022 3:15:00 AM 14.53 58.154 0.059 6.64 0.33 9.59
5/28/2022 3:30:00 AM 14.52 58.136 0.059 6.63 0.29 9.59
5/28/2022 3:45:00 AM 14.5 58.1 0.059 6.65 0.32 9.59
5/28/2022 4:00:00 AM 14.49 58.082 0.059 6.64 0.38 9.59
5/28/2022 4:15:00 AM 14.49 58.082 0.059 6.66 0.38 9.6
5/28/2022 4:30:00 AM 14.48 58.064 0.059 6.66 0.48 9.6
5/28/2022 4:45:00 AM 14.48 58.064 0.059 6.66 0.6 9.6
5/28/2022 5:00:00 AM 14.48 58.064 0.059 6.65 0.54 9.59
5/28/2022 5:15:00 AM 14.48 58.064 0.058 6.63 0.63 9.59
5/28/2022 5:30:00 AM 14.47 58.046 0.058 6.64 0.73 9.6
5/28/2022 5:45:00 AM 14.46 58.028 0.058 6.62 1 9.6
5/28/2022 6:00:00 AM 14.46 58.028 0.058 6.64 1.07 9.61
5/28/2022 6:15:00 AM 14.46 58.028 0.058 6.63 1.17 9.62
5/28/2022 6:30:00 AM 14.46 58.028 0.058 6.64 1.08 9.63
5/28/2022 6:45:00 AM 14.46 58.028 0.058 6.64 1.11 9.64
5/28/2022 7:00:00 AM 14.46 58.028 0.058 6.65 0.96 9.65
5/28/2022 7:15:00 AM 14.47 58.046 0.058 6.6 1.01 9.67
5/28/2022 7:30:00 AM 14.48 58.064 0.058 6.67 0.97 9.69
5/28/2022 7:45:00 AM 14.49 58.082 0.058 6.69 1.05 9.71
5/28/2022 8:00:00 AM 14.51 58.118 0.057 6.69 1.04 9.74
5/28/2022 8:15:00 AM 14.53 58.154 0.058 6.72 1.03 9.75
5/28/2022 8:30:00 AM 14.54 58.172 0.058 6.75 0.82 9.76
5/28/2022 8:45:00 AM 14.56 58.208 0.058 6.77 0.85 9.76
5/28/2022 9:00:00 AM 14.57 58.226 0.058 6.78 0.89 9.76
5/28/2022 9:15:00 AM 14.6 58.28 0.058 6.78 0.95 9.79
5/28/2022 9:30:00 AM 14.63 58.334 0.057 6.8 0.75 9.82
5/28/2022 9:45:00 AM 14.64 58.352 0.057 6.79 0.82 9.79
5/28/2022 10:00:00 AM 14.66 58.388 0.057 6.81 0.62 9.77
5/28/2022 10:15:00 AM 14.67 58.406 0.057 6.8 0.66 9.75
5/28/2022 10:30:00 AM 14.71 58.478 0.057 6.81 0.57 9.81
5/28/2022 10:45:00 AM 14.75 58.55 0.057 6.84 0.53 9.84
5/28/2022 11:00:00 AM 14.79 58.622 0.057 6.86 0.56 9.85
5/28/2022 11:15:00 AM 14.8 58.64 0.056 6.82 0.74 9.74
5/28/2022 11:30:00 AM 14.8 58.64 0.056 6.74 0.69 9.7
5/28/2022 11:45:00 AM 14.8 58.64 0.056 6.79 0.58 9.72
5/28/2022 12:00:00 PM 14.83 58.694 0.056 6.81 0.64 9.74
5/28/2022 12:15:00 PM 14.92 58.856 0.056 6.83 0.72 9.8
5/28/2022 12:30:00 PM 15.01 59.018 0.055 6.81 1.33 9.71
5/28/2022 12:45:00 PM 15.07 59.126 0.055 6.79 1.37 9.68
5/28/2022 1:00:00 PM 15.04 59.072 0.055 6.8 1.23 9.69
5/28/2022 1:15:00 PM 15.11 59.198 0.055 6.81 1.82 9.69
5/28/2022 1:30:00 PM 15.12 59.216 0.055 6.82 3.61 9.69
5/28/2022 1:45:00 PM 15.12 59.216 0.055 6.83 4.54 9.73
5/28/2022 2:00:00 PM 15.14 59.252 0.055 6.83 4.14 9.78
5/28/2022 2:15:00 PM 15.2 59.36 0.055 6.88 5.15 9.78
5/28/2022 2:30:00 PM 15.27 59.486 0.054 6.85 5.89 9.76
5/28/2022 2:45:00 PM 15.31 59.558 0.054 6.85 6.82 9.74
5/28/2022 3:00:00 PM 15.38 59.684 0.055 6.88 6.42 9.7
5/28/2022 3:15:00 PM 15.39 59.702 0.055 6.87 5.74 9.66
5/28/2022 3:30:00 PM 15.44 59.792 0.055 6.88 5.44 9.65
5/28/2022 3:45:00 PM 15.43 59.774 0.055 6.81 5.19 9.65
5/28/2022 4:00:00 PM 15.48 59.864 0.055 6.88 4.94 9.65
5/28/2022 4:15:00 PM 15.48 59.864 0.055 6.84 5.36 9.58
5/28/2022 4:30:00 PM 15.5 59.9 0.055 6.85 5.17 9.57
5/28/2022 4:45:00 PM 15.53 59.954 0.055 6.85 4.29 9.58
5/28/2022 5:00:00 PM 15.55 59.99 0.055 6.83 3.61 9.55
5/28/2022 5:15:00 PM 15.53 59.954 0.056 6.82 3.35 9.52
5/28/2022 5:30:00 PM 15.53 59.954 0.056 6.79 3.39 9.52
5/28/2022 5:45:00 PM 15.52 59.936 0.056 6.82 3.27 9.54
5/28/2022 6:00:00 PM 15.52 59.936 0.056 6.82 3.61 9.55
5/28/2022 6:15:00 PM 15.5 59.9 0.056 6.79 2.98 9.52
5/28/2022 6:30:00 PM 15.48 59.864 0.056 6.8 3.08 9.51
5/28/2022 6:45:00 PM 15.48 59.864 0.056 6.78 3.27 9.5
5/28/2022 7:00:00 PM 15.47 59.846 0.057 6.79 2.93 9.5
5/28/2022 7:15:00 PM 15.45 59.81 0.057 6.78 2.77 9.5
5/28/2022 7:30:00 PM 15.42 59.756 0.057 6.78 2.75 9.5
5/28/2022 7:45:00 PM 15.39 59.702 0.058 6.77 2.67 9.51
5/28/2022 8:00:00 PM 15.36 59.648 0.058 6.72 2.61 9.51
5/28/2022 8:15:00 PM 15.33 59.594 0.058 6.76 2.59 9.51
5/28/2022 8:30:00 PM 15.3 59.54 0.058 6.76 2.23 9.51
5/28/2022 8:45:00 PM 15.28 59.504 0.059 6.75 2.34 9.52
5/28/2022 9:00:00 PM 15.25 59.45 0.059 6.75 2.48 9.52
5/28/2022 9:15:00 PM 15.21 59.378 0.059 6.74 2.42 9.53
5/28/2022 9:30:00 PM 15.18 59.324 0.059 6.73 2.49 9.54
5/28/2022 9:45:00 PM 15.15 59.27 0.059 6.75 2.35 9.54
5/28/2022 10:00:00 PM 15.12 59.216 0.06 6.73 2.13 9.54
5/28/2022 10:15:00 PM 15.09 59.162 0.06 6.74 2.14 9.55
5/28/2022 10:30:00 PM 15.06 59.108 0.06 6.73 1.81 9.56
5/28/2022 10:45:00 PM 15.02 59.036 0.06 6.74 1.97 9.57
5/28/2022 11:00:00 PM 14.99 58.982 0.06 6.73 1.99 9.57
5/28/2022 11:15:00 PM 14.95 58.91 0.06 6.73 1.81 9.58
5/28/2022 11:30:00 PM 14.91 58.838 0.06 6.74 1.84 9.59
5/28/2022 11:45:00 PM 14.87 58.766 0.06 6.72 1.69 9.6
5/29/2022 12:00:00 AM 14.83 58.694 0.06 6.74 1.68 9.61
5/29/2022 12:15:00 AM 14.79 58.622 0.06 6.71 1.65 9.63
5/29/2022 12:30:00 AM 14.74 58.532 0.06 6.71 1.58 9.64
5/29/2022 12:45:00 AM 14.7 58.46 0.06 6.73 1.64 9.65
5/29/2022 1:00:00 AM 14.65 58.37 0.06 6.69 1.45 9.66
5/29/2022 1:15:00 AM 14.6 58.28 0.06 6.72 1.51 9.67
5/29/2022 1:30:00 AM 14.55 58.19 0.06 6.69 1.46 9.69
5/29/2022 1:45:00 AM 14.51 58.118 0.059 6.72 1.5 9.7
5/29/2022 2:00:00 AM 14.46 58.028 0.059 6.72 1.35 9.71
5/29/2022 2:15:00 AM 14.41 57.938 0.059 6.71 1.23 9.72
5/29/2022 2:30:00 AM 14.36 57.848 0.059 6.72 1.29 9.72
5/29/2022 2:45:00 AM 14.3 57.74 0.059 6.71 1.27 9.73
5/29/2022 3:00:00 AM 14.25 57.65 0.059 6.7 1.31 9.75
5/29/2022 3:15:00 AM 14.2 57.56 0.059 6.7 1.23 9.76
5/29/2022 3:30:00 AM 14.14 57.452 0.059 6.69 1.24 9.77
5/29/2022 3:45:00 AM 14.09 57.362 0.059 6.71 1.28 9.79
5/29/2022 4:00:00 AM 14.04 57.272 0.059 6.7 1.19 9.8
5/29/2022 4:15:00 AM 13.98 57.164 0.059 6.71 1.07 9.82
5/29/2022 4:30:00 AM 13.92 57.056 0.059 6.71 1.22 9.84
5/29/2022 4:45:00 AM 13.86 56.948 0.059 6.72 1.26 9.84
5/29/2022 5:00:00 AM 13.81 56.858 0.059 6.66 1.24 9.86
5/29/2022 5:15:00 AM 13.75 56.75 0.059 6.7 1.12 9.87
5/29/2022 5:30:00 AM 13.7 56.66 0.059 6.71 1.07 9.88
5/29/2022 5:45:00 AM 13.65 56.57 0.059 6.7 1.22 9.89
5/29/2022 6:00:00 AM 13.61 56.498 0.059 6.71 1.13 9.91
5/29/2022 6:15:00 AM 13.58 56.444 0.059 6.71 1.01 9.93
5/29/2022 6:30:00 AM 13.55 56.39 0.059 6.71 1.05 9.96
5/29/2022 6:45:00 AM 13.54 56.372 0.059 6.7 0.98 9.99
5/29/2022 7:00:00 AM 13.53 56.354 0.059 6.72 0.87 10.02
5/29/2022 7:15:00 AM 13.51 56.318 0.059 6.7 0.88 10.02
5/29/2022 7:30:00 AM 13.5 56.3 0.059 6.73 0.78 10.04
5/29/2022 7:45:00 AM 13.5 56.3 0.059 6.69 0.74 10.05
5/29/2022 8:00:00 AM 13.51 56.318 0.059 6.75 0.76 10.07
5/29/2022 8:15:00 AM 13.52 56.336 0.059 6.75 0.64 10.08
5/29/2022 8:30:00 AM 13.54 56.372 0.059 6.74 0.66 10.09
5/29/2022 8:45:00 AM 13.57 56.426 0.059 6.76 0.69 10.11
5/29/2022 9:00:00 AM 13.62 56.516 0.059 6.76 0.56 10.11
5/29/2022 9:15:00 AM 13.69 56.642 0.059 6.79 0.75 10.12
5/29/2022 9:30:00 AM 13.76 56.768 0.059 6.78 0.69 10.12
5/29/2022 9:45:00 AM 13.83 56.894 0.059 6.82 0.5 10.14
5/29/2022 10:00:00 AM 13.91 57.038 0.059 6.83 0.53 10.14
5/29/2022 10:15:00 AM 14 57.2 0.059 6.84 0.57 10.13
5/29/2022 10:30:00 AM 14.12 57.416 0.059 6.88 0.59 10.14
5/29/2022 10:45:00 AM 14.22 57.596 0.059 6.87 0.56 10.12
5/29/2022 11:00:00 AM 14.36 57.848 0.058 6.87 0.56 10.11
5/29/2022 11:15:00 AM 14.46 58.028 0.058 6.86 0.53 10.09
5/29/2022 11:30:00 AM 14.61 58.298 0.058 6.88 0.5 10.07
5/29/2022 11:45:00 AM 14.72 58.496 0.058 6.84 0.58 10.02
5/29/2022 12:00:00 PM 14.91 58.838 0.058 6.88 0.57 9.99
5/29/2022 12:15:00 PM 15.1 59.18 0.058 6.88 0.54 9.95
5/29/2022 12:30:00 PM 15.32 59.576 0.058 6.89 0.48 9.93
5/29/2022 12:45:00 PM 15.5 59.9 0.058 6.9 0.54 9.88
5/29/2022 1:00:00 PM 15.65 60.17 0.058 6.9 0.55 9.87
5/29/2022 1:15:00 PM 15.76 60.368 0.059 6.91 0.54 9.82
5/29/2022 1:30:00 PM 15.92 60.656 0.059 6.89 0.6 9.8
5/29/2022 1:45:00 PM 16.1 60.98 0.059 6.91 0.45 9.77
5/29/2022 2:00:00 PM 16.08 60.944 0.059 6.91 0.53 9.72
5/29/2022 2:15:00 PM 16.11 60.998 0.059 6.89 0.62 9.71
5/29/2022 2:30:00 PM 16.24 61.232 0.059 6.89 0.51 9.67
5/29/2022 2:45:00 PM 16.31 61.358 0.059 6.89 0.4 9.61
5/29/2022 3:00:00 PM 16.34 61.412 0.059 6.88 0.49 9.59
5/29/2022 3:15:00 PM 16.41 61.538 0.059 6.88 0.48 9.57
5/29/2022 3:30:00 PM 16.41 61.538 0.059 6.86 0.48 9.55
5/29/2022 3:45:00 PM 16.39 61.502 0.059 6.85 0.45 9.52
5/29/2022 4:00:00 PM 16.36 61.448 0.06 6.85 0.36 9.5
5/29/2022 4:15:00 PM 16.34 61.412 0.06 6.84 0.38 9.48
5/29/2022 4:30:00 PM 16.32 61.376 0.06 6.79 0.35 9.47
5/29/2022 4:45:00 PM 16.3 61.34 0.06 6.82 0.4 9.46
5/29/2022 5:00:00 PM 16.26 61.268 0.06 6.81 0.33 9.46
5/29/2022 5:15:00 PM 16.24 61.232 0.06 6.81 0.33 9.46
5/29/2022 5:30:00 PM 16.22 61.196 0.06 6.79 0.34 9.45
5/29/2022 5:45:00 PM 16.21 61.178 0.06 6.79 0.3 9.44
5/29/2022 6:00:00 PM 16.19 61.142 0.061 6.78 0.26 9.43
5/29/2022 6:15:00 PM 16.16 61.088 0.061 6.76 0.41 9.43
5/29/2022 6:30:00 PM 16.11 60.998 0.061 6.76 0.44 9.43
5/29/2022 6:45:00 PM 16.07 60.926 0.061 6.74 0.38 9.42
5/29/2022 7:00:00 PM 16.02 60.836 0.061 6.74 0.31 9.43
5/29/2022 7:15:00 PM 15.96 60.728 0.061 6.75 0.38 9.43
5/29/2022 7:30:00 PM 15.9 60.62 0.061 6.74 0.43 9.44
5/29/2022 7:45:00 PM 15.84 60.512 0.061 6.74 0.31 9.45
5/29/2022 8:00:00 PM 15.78 60.404 0.061 6.73 0.26 9.45
5/29/2022 8:15:00 PM 15.72 60.296 0.061 6.73 0.41 9.45
5/29/2022 8:30:00 PM 15.66 60.188 0.061 6.72 0.35 9.45
5/29/2022 8:45:00 PM 15.61 60.098 0.061 6.71 0.32 9.45
5/29/2022 9:00:00 PM 15.55 59.99 0.061 6.69 0.38 9.46
5/29/2022 9:15:00 PM 15.5 59.9 0.061 6.72 0.38 9.47
5/29/2022 9:30:00 PM 15.45 59.81 0.061 6.71 0.55 9.49
5/29/2022 9:45:00 PM 15.4 59.72 0.061 6.71 0.51 9.5
5/29/2022 10:00:00 PM 15.35 59.63 0.061 6.71 0.35 9.51
5/29/2022 10:15:00 PM 15.3 59.54 0.061 6.72 0.39 9.52
5/29/2022 10:30:00 PM 15.26 59.468 0.061 6.72 0.36 9.54
5/29/2022 10:45:00 PM 15.21 59.378 0.062 6.72 0.4 9.55
5/29/2022 11:00:00 PM 15.17 59.306 0.062 6.71 0.31 9.56
5/29/2022 11:15:00 PM 15.13 59.234 0.062 6.7 0.31 9.56
5/29/2022 11:30:00 PM 15.08 59.144 0.062 6.72 0.34 9.57
5/29/2022 11:45:00 PM 15.04 59.072 0.062 6.7 0.39 9.58
5/30/2022 12:00:00 AM 14.99 58.982 0.062 6.71 0.29 9.59
5/30/2022 12:15:00 AM 14.94 58.892 0.062 6.7 0.35 9.6
5/30/2022 12:30:00 AM 14.9 58.82 0.062 6.71 0.36 9.61
5/30/2022 12:45:00 AM 14.85 58.73 0.062 6.69 0.3 9.62
5/30/2022 1:00:00 AM 14.8 58.64 0.062 6.7 0.46 9.64
5/30/2022 1:15:00 AM 14.75 58.55 0.062 6.7 0.41 9.65
5/30/2022 1:30:00 AM 14.71 58.478 0.062 6.69 0.4 9.66
5/30/2022 1:45:00 AM 14.66 58.388 0.062 6.69 0.28 9.67
5/30/2022 2:00:00 AM 14.61 58.298 0.062 6.69 0.28 9.69
5/30/2022 2:15:00 AM 14.56 58.208 0.062 6.68 0.25 9.7
5/30/2022 2:30:00 AM 14.52 58.136 0.062 6.7 0.3 9.7
5/30/2022 2:45:00 AM 14.47 58.046 0.062 6.69 0.29 9.71
5/30/2022 3:00:00 AM 14.43 57.974 0.062 6.69 0.21 9.72
5/30/2022 3:15:00 AM 14.38 57.884 0.062 6.69 0.23 9.73
5/30/2022 3:30:00 AM 14.34 57.812 0.062 6.7 0.49 9.73
5/30/2022 3:45:00 AM 14.29 57.722 0.062 6.69 0.33 9.74
5/30/2022 4:00:00 AM 14.25 57.65 0.062 6.7 0.25 9.76
5/30/2022 4:15:00 AM 14.2 57.56 0.062 6.69 0.33 9.77
5/30/2022 4:30:00 AM 14.16 57.488 0.062 6.7 0.4 9.78
5/30/2022 4:45:00 AM 14.12 57.416 0.062 6.7 0.36 9.79
5/30/2022 5:00:00 AM 14.08 57.344 0.062 6.69 0.28 9.8
5/30/2022 5:15:00 AM 14.04 57.272 0.062 6.69 0.38 9.82
5/30/2022 5:30:00 AM 13.99 57.182 0.062 6.68 0.37 9.82
5/30/2022 5:45:00 AM 13.95 57.11 0.062 6.69 0.37 9.84
5/30/2022 6:00:00 AM 13.92 57.056 0.062 6.69 0.46 9.85
5/30/2022 6:15:00 AM 13.88 56.984 0.062 6.69 0.34 9.88
5/30/2022 6:30:00 AM 13.85 56.93 0.062 6.69 0.25 9.9
5/30/2022 6:45:00 AM 13.83 56.894 0.062 6.69 0.24 9.92
5/30/2022 7:00:00 AM 13.81 56.858 0.062 6.71 0.26 9.94
5/30/2022 7:15:00 AM 13.8 56.84 0.062 6.71 0.17 9.95
5/30/2022 7:30:00 AM 13.79 56.822 0.062 6.71 0.19 9.96
5/30/2022 7:45:00 AM 13.79 56.822 0.062 6.72 0.15 9.97
5/30/2022 8:00:00 AM 13.79 56.822 0.062 6.73 0.11 10
5/30/2022 8:15:00 AM 13.81 56.858 0.062 6.73 0.19 10.01
5/30/2022 8:30:00 AM 13.84 56.912 0.062 6.73 0.15 10.02
5/30/2022 8:45:00 AM 13.88 56.984 0.062 6.73 0.09 10.05
5/30/2022 9:00:00 AM 13.94 57.092 0.062 6.74 0.12 10.05
5/30/2022 9:15:00 AM 14.01 57.218 0.062 6.75 0.02 10.06
5/30/2022 9:30:00 AM 14.08 57.344 0.062 6.75 0.05 10.06
5/30/2022 9:45:00 AM 14.19 57.542 0.062 6.78 0.09 10.05
5/30/2022 10:00:00 AM 14.3 57.74 0.062 6.8 0.15 10.04
5/30/2022 10:15:00 AM 14.42 57.956 0.062 6.82 0.32 10.07
5/30/2022 10:30:00 AM 14.54 58.172 0.062 6.86 0.12 10.06
5/30/2022 10:45:00 AM 14.7 58.46 0.062 6.87 0.2 10.04
5/30/2022 11:00:00 AM 14.88 58.784 0.062 6.88 0.14 10.01
5/30/2022 11:15:00 AM 15.08 59.144 0.062 6.9 0.13 9.99
5/30/2022 11:30:00 AM 15.25 59.45 0.061 6.9 0.15 9.97
5/30/2022 11:45:00 AM 15.42 59.756 0.061 6.94 0.16 9.95
5/30/2022 12:00:00 PM 15.65 60.17 0.061 6.94 0.11 9.91
5/30/2022 12:15:00 PM 15.88 60.584 0.061 6.94 0.09 9.86
5/30/2022 12:30:00 PM 16.16 61.088 0.061 6.92 0.18 9.79
5/30/2022 12:45:00 PM 16.43 61.574 0.061 6.95 0.18 9.74
5/30/2022 1:00:00 PM 16.65 61.97 0.061 6.94 0.09 9.7
5/30/2022 1:15:00 PM 16.85 62.33 0.061 6.96 0.28 9.64
5/30/2022 1:30:00 PM 17.04 62.672 0.061 6.96 0.31 9.59
5/30/2022 1:45:00 PM 17.23 63.014 0.061 6.96 0.05 9.54
5/30/2022 2:00:00 PM 17.36 63.248 0.061 6.94 0.21 9.49
5/30/2022 2:15:00 PM 17.46 63.428 0.061 6.95 0.17 9.44
5/30/2022 2:30:00 PM 17.52 63.536 0.061 6.93 0.15 9.4
5/30/2022 2:45:00 PM 17.55 63.59 0.061 6.93 0.09 9.37
5/30/2022 3:00:00 PM 17.58 63.644 0.061 6.93 0.41 9.34
5/30/2022 3:15:00 PM 17.59 63.662 0.061 6.93 0.1 9.32
5/30/2022 3:30:00 PM 17.59 63.662 0.062 6.91 0.09 9.3
5/30/2022 3:45:00 PM 17.58 63.644 0.062 6.9 0.15 9.28
5/30/2022 4:00:00 PM 17.56 63.608 0.062 6.89 0.03 9.27
5/30/2022 4:15:00 PM 17.54 63.572 0.062 6.89 0.09 9.25
5/30/2022 4:30:00 PM 17.52 63.536 0.062 6.87 0.06 9.23
5/30/2022 4:45:00 PM 17.51 63.518 0.062 6.86 0.22 9.22
5/30/2022 5:00:00 PM 17.52 63.536 0.062 6.86 0.11 9.21
5/30/2022 5:15:00 PM 17.52 63.536 0.062 6.85 0.13 9.19
5/30/2022 5:30:00 PM 17.52 63.536 0.062 6.83 0.12 9.18
5/30/2022 5:45:00 PM 17.51 63.518 0.062 6.82 0.08 9.17
5/30/2022 6:00:00 PM 17.5 63.5 0.063 6.81 0.09 9.16
5/30/2022 6:15:00 PM 17.49 63.482 0.063 6.81 0.12 9.15
5/30/2022 6:30:00 PM 17.47 63.446 0.063 6.8 0.05 9.14
5/30/2022 6:45:00 PM 17.43 63.374 0.063 6.79 0.1 9.14
5/30/2022 7:00:00 PM 17.4 63.32 0.063 6.79 0.19 9.14
5/30/2022 7:15:00 PM 17.36 63.248 0.063 6.75 0.12 9.14
5/30/2022 7:30:00 PM 17.32 63.176 0.063 6.79 0.18 9.13
5/30/2022 7:45:00 PM 17.27 63.086 0.063 6.76 0.12 9.13
5/30/2022 8:00:00 PM 17.22 62.996 0.063 6.75 0.16 9.13
5/30/2022 8:15:00 PM 17.17 62.906 0.063 6.75 0.1 9.13
5/30/2022 8:30:00 PM 17.11 62.798 0.063 6.74 0.11 9.13
5/30/2022 8:45:00 PM 17.05 62.69 0.064 6.71 0.23 9.13
5/30/2022 9:00:00 PM 17 62.6 0.064 6.71 0.22 9.13
5/30/2022 9:15:00 PM 16.94 62.492 0.064 6.71 0.31 9.13
5/30/2022 9:30:00 PM 16.88 62.384 0.064 6.72 0.27 9.15
5/30/2022 9:45:00 PM 16.83 62.294 0.064 6.72 0.22 9.16
5/30/2022 10:00:00 PM 16.77 62.186 0.064 6.72 0.27 9.18
5/30/2022 10:15:00 PM 16.72 62.096 0.064 6.72 0.22 9.19
5/30/2022 10:30:00 PM 16.67 62.006 0.064 6.71 0.14 9.21
5/30/2022 10:45:00 PM 16.62 61.916 0.064 6.73 0.28 9.22
5/30/2022 11:00:00 PM 16.58 61.844 0.064 6.68 0.24 9.22
5/30/2022 11:15:00 PM 16.53 61.754 0.064 6.72 0.27 9.23
5/30/2022 11:30:00 PM 16.49 61.682 0.064 6.71 0.22 9.25
5/30/2022 11:45:00 PM 16.45 61.61 0.064 6.69 0.14 9.25
5/31/2022 12:00:00 AM 16.41 61.538 0.064 6.7 0.18 9.26
5/31/2022 12:15:00 AM 16.38 61.484 0.063 6.7 0.15 9.26
5/31/2022 12:30:00 AM 16.34 61.412 0.063 6.7 0.19 9.27
5/31/2022 12:45:00 AM 16.31 61.358 0.063 6.69 0.15 9.27
5/31/2022 1:00:00 AM 16.27 61.286 0.063 6.69 0.12 9.27
5/31/2022 1:15:00 AM 16.24 61.232 0.063 6.7 0.11 9.28
5/31/2022 1:30:00 AM 16.21 61.178 0.063 6.69 0.22 9.29
5/31/2022 1:45:00 AM 16.18 61.124 0.063 6.68 0.1 9.3
5/31/2022 2:00:00 AM 16.15 61.07 0.063 6.68 0.2 9.3
5/31/2022 2:15:00 AM 16.12 61.016 0.063 6.66 0.17 9.31
5/31/2022 2:30:00 AM 16.09 60.962 0.063 6.67 0.12 9.32
5/31/2022 2:45:00 AM 16.06 60.908 0.063 6.68 0.16 9.33
5/31/2022 3:00:00 AM 16.03 60.854 0.063 6.67 0.14 9.33
5/31/2022 3:15:00 AM 16 60.8 0.063 6.65 0.1 9.34
5/31/2022 3:30:00 AM 15.97 60.746 0.063 6.66 0.14 9.35
5/31/2022 3:45:00 AM 15.93 60.674 0.063 6.66 0.27 9.36
5/31/2022 4:00:00 AM 15.9 60.62 0.063 6.67 0.18 9.36
5/31/2022 4:15:00 AM 15.87 60.566 0.063 6.67 0.2 9.37
5/31/2022 4:30:00 AM 15.83 60.494 0.063 6.67 0.19 9.37
5/31/2022 4:45:00 AM 15.8 60.44 0.063 6.66 0.24 9.38
5/31/2022 5:00:00 AM 15.76 60.368 0.063 6.66 0.2 9.39
5/31/2022 5:15:00 AM 15.73 60.314 0.063 6.65 0.23 9.39
5/31/2022 5:30:00 AM 15.69 60.242 0.063 6.66 0.35 9.4
5/31/2022 5:45:00 AM 15.65 60.17 0.063 6.66 0.32 9.41
5/31/2022 6:00:00 AM 15.62 60.116 0.063 6.67 0.25 9.43
5/31/2022 6:15:00 AM 15.58 60.044 0.063 6.66 0.34 9.44
5/31/2022 6:30:00 AM 15.55 59.99 0.063 6.66 0.08 9.47
5/31/2022 6:45:00 AM 15.53 59.954 0.063 6.68 0.19 9.49
5/31/2022 7:00:00 AM 15.5 59.9 0.063 6.68 0.12 9.5
5/31/2022 7:15:00 AM 15.49 59.882 0.063 6.68 0.05 9.52
5/31/2022 7:30:00 AM 15.47 59.846 0.063 6.68 0.03 9.54
5/31/2022 7:45:00 AM 15.46 59.828 0.063 6.68 0.09 9.55
5/31/2022 8:00:00 AM 15.46 59.828 0.063 6.69 0.09 9.57
5/31/2022 8:15:00 AM 15.47 59.846 0.063 6.69 0.11 9.6
5/31/2022 8:30:00 AM 15.49 59.882 0.063 6.7 0.02 9.6
5/31/2022 8:45:00 AM 15.53 59.954 0.063 6.71 0.05 9.62
5/31/2022 9:00:00 AM 15.57 60.026 0.063 6.72 -0.03 9.63
5/31/2022 9:15:00 AM 15.64 60.152 0.063 6.75 0.04 9.63
5/31/2022 9:30:00 AM 15.72 60.296 0.063 6.78 -0.04 9.64
5/31/2022 9:45:00 AM 15.85 60.53 0.062 6.81 0.04 9.65
5/31/2022 10:00:00 AM 15.97 60.746 0.062 6.84 0.04 9.65
5/31/2022 10:15:00 AM 16.09 60.962 0.062 6.85 0.08 9.64
5/31/2022 10:30:00 AM 16.24 61.232 0.062 6.87 0.04 9.62
5/31/2022 10:45:00 AM 16.4 61.52 0.062 6.89 0.03 9.61
5/31/2022 11:00:00 AM 16.58 61.844 0.062 6.89 0.11 9.61
5/31/2022 11:15:00 AM 16.79 62.222 0.062 6.96 0.16 9.59
5/31/2022 11:30:00 AM 16.98 62.564 0.062 6.94 0.07 9.54
5/31/2022 11:45:00 AM 17.21 62.978 0.062 6.94 0 9.53
5/31/2022 12:00:00 PM 17.48 63.464 0.062 6.98 0.08 9.48
5/31/2022 12:15:00 PM 17.71 63.878 0.062 6.98 0.16 9.44
5/31/2022 12:30:00 PM 17.9 64.22 0.062 6.96 0.05 9.41
5/31/2022 12:45:00 PM 18.13 64.634 0.062 6.98 0.11 9.37
5/31/2022 1:00:00 PM 18.33 64.994 0.062 6.98 0.09 9.32
5/31/2022 1:15:00 PM 18.59 65.462 0.062 6.99 0.05 9.28
5/31/2022 1:30:00 PM 18.79 65.82201 0.062 6.99 0.05 9.23
5/31/2022 1:45:00 PM 18.95 66.11 0.062 6.98 0.01 9.19
5/31/2022 2:00:00 PM 19.05 66.29 0.062 6.97 0.03 9.15
5/31/2022 2:15:00 PM 19.12 66.416 0.062 6.99 0.04 9.13
5/31/2022 2:30:00 PM 19.18 66.524 0.062 6.99 -0.06 9.11
5/31/2022 2:45:00 PM 19.19 66.542 0.062 6.98 0.02 9.08
5/31/2022 3:00:00 PM 19.24 66.632 0.062 6.98 0.04 9.06
5/31/2022 3:15:00 PM 19.26 66.668 0.062 6.98 -0.04 9.05
5/31/2022 3:30:00 PM 19.18 66.524 0.062 6.92 -0.02 8.99
5/31/2022 3:45:00 PM 19.08 66.344 0.062 6.92 0.06 8.95
5/31/2022 4:00:00 PM 19.04 66.272 0.063 6.88 0.01 8.97
5/31/2022 4:15:00 PM 19 66.2 0.063 6.92 -0.03 8.98
5/31/2022 4:30:00 PM 18.96 66.128 0.063 6.91 0.02 8.97
5/31/2022 4:45:00 PM 18.95 66.11 0.063 6.92 -0.05 8.99
5/31/2022 5:00:00 PM 18.93 66.074 0.063 6.92 -0.14 8.98
5/31/2022 5:15:00 PM 18.9 66.02 0.063 6.89 -0.04 8.94
5/31/2022 5:30:00 PM 18.88 65.984 0.063 6.85 -0.02 8.91
5/31/2022 5:45:00 PM 18.86 65.948 0.063 6.84 -0.04 8.89
5/31/2022 6:00:00 PM 18.85 65.93 0.063 6.84 -0.03 8.87
5/31/2022 6:15:00 PM 18.83 65.894 0.063 6.83 0 8.85
5/31/2022 6:30:00 PM 18.8 65.84 0.064 6.81 -0.09 8.84
5/31/2022 6:45:00 PM 18.75 65.75 0.064 6.8 0.05 8.84
5/31/2022 7:00:00 PM 18.69 65.642 0.064 6.8 -0.03 8.85
5/31/2022 7:15:00 PM 18.63 65.534 0.064 6.78 -0.02 8.85
5/31/2022 7:30:00 PM 18.57 65.426 0.064 6.79 -0.03 8.84
5/31/2022 7:45:00 PM 18.52 65.336 0.064 6.78 0.03 8.85
5/31/2022 8:00:00 PM 18.45 65.21 0.064 6.78 -0.02 8.85
5/31/2022 8:15:00 PM 18.4 65.12 0.064 6.76 0.03 8.84
5/31/2022 8:30:00 PM 18.34 65.012 0.064 6.75 0 8.83
5/31/2022 8:45:00 PM 18.28 64.904 0.064 6.75 0.07 8.82
5/31/2022 9:00:00 PM 18.22 64.796 0.064 6.73 0.15 8.83
5/31/2022 9:15:00 PM 18.16 64.688 0.064 6.72 0.07 8.85
5/31/2022 9:30:00 PM 18.1 64.58 0.064 6.7 0.18 8.85
5/31/2022 9:45:00 PM 18.03 64.454 0.064 6.71 0.16 8.87
5/31/2022 10:00:00 PM 17.96 64.328 0.064 6.71 0.09 8.89
5/31/2022 10:15:00 PM 17.89 64.202 0.064 6.71 0.1 8.9
5/31/2022 10:30:00 PM 17.83 64.094 0.064 6.69 -0.11 8.91
5/31/2022 10:45:00 PM 17.77 63.986 0.064 6.71 -0.02 8.93
5/31/2022 11:00:00 PM 17.71 63.878 0.064 6.7 -0.06 8.94
5/31/2022 11:15:00 PM 17.65 63.77 0.064 6.7 -0.05 8.94
5/31/2022 11:30:00 PM 17.6 63.68 0.064 6.68 -0.06 8.95
5/31/2022 11:45:00 PM 17.56 63.608 0.064 6.68 -0.03 8.96
6/1/2022 12:00:00 AM 17.52 63.536 0.064 6.7 0.01 8.97
6/1/2022 12:15:00 AM 17.48 63.464 0.064 6.68 -0.14 8.98
6/1/2022 12:30:00 AM 17.44 63.392 0.064 6.67 -0.06 9
6/1/2022 12:45:00 AM 17.41 63.338 0.064 6.68 0 9
6/1/2022 1:00:00 AM 17.37 63.266 0.064 6.67 -0.07 9.01
6/1/2022 1:15:00 AM 17.34 63.212 0.064 6.68 -0.02 9.02
6/1/2022 1:30:00 AM 17.31 63.158 0.064 6.65 -0.07 9.03
6/1/2022 1:45:00 AM 17.29 63.122 0.064 6.66 0.02 9.03
6/1/2022 2:00:00 AM 17.26 63.068 0.064 6.66 -0.1 9.03
6/1/2022 2:15:00 AM 17.23 63.014 0.064 6.66 -0.06 9.04
6/1/2022 2:30:00 AM 17.2 62.96 0.064 6.66 0.01 9.04
6/1/2022 2:45:00 AM 17.16 62.888 0.064 6.67 -0.03 9.05
6/1/2022 3:00:00 AM 17.13 62.834 0.064 6.68 0 9.06
6/1/2022 3:15:00 AM 17.09 62.762 0.064 6.67 -0.01 9.06
6/1/2022 3:30:00 AM 17.05 62.69 0.064 6.67 0.03 9.07
6/1/2022 3:45:00 AM 17.02 62.636 0.064 6.68 -0.07 9.07
6/1/2022 4:00:00 AM 16.99 62.582 0.064 6.69 -0.08 9.08
6/1/2022 4:15:00 AM 16.95 62.51 0.064 6.7 -0.02 9.08
6/1/2022 4:30:00 AM 16.91 62.438 0.064 6.7 0.04 9.09
6/1/2022 4:45:00 AM 16.88 62.384 0.064 6.71 -0.05 9.1
6/1/2022 5:00:00 AM 16.84 62.312 0.064 6.71 0.05 9.1
6/1/2022 5:15:00 AM 16.8 62.24 0.064 6.71 -0.04 9.12
6/1/2022 5:30:00 AM 16.77 62.186 0.063 6.71 -0.02 9.13
6/1/2022 5:45:00 AM 16.73 62.114 0.063 6.7 0.12 9.14
6/1/2022 6:00:00 AM 16.7 62.06 0.063 6.71 0.05 9.15
6/1/2022 6:15:00 AM 16.66 61.988 0.063 6.7 0.01 9.17
6/1/2022 6:30:00 AM 16.64 61.952 0.063 6.71 -0.06 9.2
6/1/2022 6:45:00 AM 16.62 61.916 0.063 6.71 0 9.22
6/1/2022 7:00:00 AM 16.6 61.88 0.063 6.71 0.03 9.24
6/1/2022 7:15:00 AM 16.6 61.88 0.063 6.71 -0.06 9.28
6/1/2022 7:30:00 AM 16.59 61.862 0.063 6.72 -0.09 9.3
6/1/2022 7:45:00 AM 16.59 61.862 0.063 6.72 -0.11 9.3
6/1/2022 8:00:00 AM 16.58 61.844 0.063 6.72 0 9.31
6/1/2022 8:15:00 AM 16.59 61.862 0.063 6.72 -0.12 9.32
6/1/2022 8:30:00 AM 16.61 61.898 0.063 6.73 -0.02 9.35
6/1/2022 8:45:00 AM 16.65 61.97 0.063 6.75 -0.14 9.36
6/1/2022 9:00:00 AM 16.71 62.078 0.063 6.77 0.02 9.37
6/1/2022 9:15:00 AM 16.77 62.186 0.063 6.78 -0.06 9.39
6/1/2022 9:30:00 AM 16.84 62.312 0.063 6.79 -0.02 9.39
6/1/2022 9:45:00 AM 16.93 62.474 0.063 6.82 0.06 9.4
6/1/2022 10:00:00 AM 17.02 62.636 0.062 6.84 0 9.41
6/1/2022 10:15:00 AM 17.13 62.834 0.062 6.85 0.07 9.42
6/1/2022 10:30:00 AM 17.26 63.068 0.062 6.87 0.07 9.43
6/1/2022 10:45:00 AM 17.4 63.32 0.062 6.88 0.03 9.43
6/1/2022 11:00:00 AM 17.53 63.554 0.062 6.89 0.08 9.41
6/1/2022 11:15:00 AM 17.72 63.896 0.062 6.91 0.09 9.39
6/1/2022 11:30:00 AM 17.87 64.166 0.061 6.93 0.1 9.37
6/1/2022 11:45:00 AM 18.08 64.544 0.061 6.94 0.11 9.34
6/1/2022 12:00:00 PM 18.31 64.958 0.061 6.95 0.06 9.28
6/1/2022 12:15:00 PM 18.55 65.39 0.061 6.96 0.02 9.26
6/1/2022 12:30:00 PM 18.8 65.84 0.061 6.98 0.07 9.22
6/1/2022 12:45:00 PM 19.04 66.272 0.061 6.99 0.01 9.17
6/1/2022 1:00:00 PM 19.27 66.686 0.061 6.99 0.03 9.14
6/1/2022 1:15:00 PM 19.46 67.028 0.061 7 -0.01 9.1
6/1/2022 1:30:00 PM 19.61 67.298 0.061 7 0.02 9.06
6/1/2022 1:45:00 PM 19.64 67.352 0.061 6.99 0.05 9.01
6/1/2022 2:00:00 PM 19.65 67.37 0.061 6.99 0.09 8.99
6/1/2022 2:15:00 PM 19.66 67.388 0.061 6.99 0.12 9
6/1/2022 2:30:00 PM 19.63 67.334 0.061 6.97 -0.05 8.97
6/1/2022 2:45:00 PM 19.62 67.316 0.061 6.96 -0.02 8.96
6/1/2022 3:00:00 PM 19.69 67.442 0.061 6.96 -0.09 8.95
6/1/2022 3:15:00 PM 19.67 67.406 0.061 6.96 -0.09 8.93
6/1/2022 3:30:00 PM 19.64 67.352 0.061 6.95 -0.09 8.93
6/1/2022 3:45:00 PM 19.64 67.352 0.061 6.94 -0.14 8.9
6/1/2022 4:00:00 PM 19.6 67.28 0.061 6.93 -0.06 8.88
6/1/2022 4:15:00 PM 19.59 67.262 0.061 6.93 -0.05 8.9
6/1/2022 4:30:00 PM 19.6 67.28 0.061 6.92 -0.15 8.87
6/1/2022 4:45:00 PM 19.6 67.28 0.061 6.91 -0.06 8.84
6/1/2022 5:00:00 PM 19.61 67.298 0.061 6.9 -0.04 8.82
6/1/2022 5:15:00 PM 19.59 67.262 0.061 6.89 -0.13 8.81
6/1/2022 5:30:00 PM 19.54 67.172 0.062 6.86 -0.13 8.77
6/1/2022 5:45:00 PM 19.51 67.118 0.062 6.85 -0.07 8.79
6/1/2022 6:00:00 PM 19.47 67.046 0.062 6.84 -0.07 8.77
6/1/2022 6:15:00 PM 19.43 66.974 0.062 6.83 -0.03 8.73
6/1/2022 6:30:00 PM 19.38 66.884 0.062 6.8 0.04 8.68
6/1/2022 6:45:00 PM 19.32 66.776 0.062 6.81 0.15 8.66
6/1/2022 7:00:00 PM 19.24 66.632 0.062 6.8 0.21 8.64
6/1/2022 7:15:00 PM 19.16 66.488 0.062 6.8 0.32 8.63
6/1/2022 7:30:00 PM 19.09 66.362 0.063 6.79 0.27 8.63
6/1/2022 7:45:00 PM 19.01 66.218 0.062 6.78 3.37 8.61
6/1/2022 8:00:00 PM 18.94 66.092 0.062 6.76 1.91 8.61
6/1/2022 8:15:00 PM 18.87 65.966 0.062 6.76 1.36 8.62
6/1/2022 8:30:00 PM 18.8 65.84 0.062 6.73 0.99 8.63
6/1/2022 8:45:00 PM 18.72 65.696 0.062 6.74 0.93 8.65
6/1/2022 9:00:00 PM 18.64 65.552 0.062 6.74 0.85 8.67
6/1/2022 9:15:00 PM 18.57 65.426 0.062 6.72 1.05 8.68
6/1/2022 9:30:00 PM 18.5 65.3 0.062 6.71 0.89 8.7
6/1/2022 9:45:00 PM 18.44 65.192 0.061 6.7 1.04 8.71
6/1/2022 10:00:00 PM 18.37 65.066 0.061 6.7 1.13 8.72
6/1/2022 10:15:00 PM 18.31 64.958 0.061 6.69 1.89 8.72
6/1/2022 10:30:00 PM 18.25 64.85 0.061 6.7 3.88 8.74
6/1/2022 10:45:00 PM 18.19 64.742 0.06 6.7 4.47 8.76
6/1/2022 11:00:00 PM 18.13 64.634 0.06 6.71 4.38 8.78
6/1/2022 11:15:00 PM 18.07 64.526 0.06 6.71 4.28 8.8
6/1/2022 11:30:00 PM 18.01 64.418 0.061 6.72 3.85 8.81
6/1/2022 11:45:00 PM 17.96 64.328 0.062 6.71 3.3 8.82
6/2/2022 12:00:00 AM 17.92 64.256 0.062 6.72 2.76 8.84
6/2/2022 12:15:00 AM 17.88 64.184 0.062 6.72 2.69 8.85
6/2/2022 12:30:00 AM 17.85 64.13 0.061 6.7 2.53 8.85
6/2/2022 12:45:00 AM 17.81 64.058 0.06 6.69 2.19 8.85
6/2/2022 1:00:00 AM 17.77 63.986 0.06 6.67 2.08 8.85
6/2/2022 1:15:00 AM 17.74 63.932 0.059 6.66 2.16 8.85
6/2/2022 1:30:00 AM 17.7 63.86 0.058 6.67 2.19 8.85
6/2/2022 1:45:00 AM 17.66 63.788 0.058 6.67 2.22 8.86
6/2/2022 2:00:00 AM 17.61 63.698 0.058 6.67 2.05 8.87
6/2/2022 2:15:00 AM 17.57 63.626 0.058 6.68 2.14 8.88
6/2/2022 2:30:00 AM 17.54 63.572 0.058 6.69 2.5 8.89
6/2/2022 2:45:00 AM 17.5 63.5 0.058 6.7 2.83 8.91
6/2/2022 3:00:00 AM 17.47 63.446 0.058 6.69 2.73 8.92
6/2/2022 3:15:00 AM 17.44 63.392 0.058 6.69 2.35 8.93
6/2/2022 3:30:00 AM 17.41 63.338 0.059 6.7 2.17 8.94
6/2/2022 3:45:00 AM 17.38 63.284 0.06 6.69 2.14 8.95
6/2/2022 4:00:00 AM 17.35 63.23 0.061 6.7 1.96 8.96
6/2/2022 4:15:00 AM 17.33 63.194 0.062 6.71 1.83 8.97
6/2/2022 4:30:00 AM 17.3 63.14 0.063 6.71 1.77 8.97
6/2/2022 4:45:00 AM 17.28 63.104 0.063 6.71 1.71 8.98
6/2/2022 5:00:00 AM 17.26 63.068 0.063 6.71 1.75 8.98
6/2/2022 5:15:00 AM 17.23 63.014 0.064 6.71 1.55 8.99
6/2/2022 5:30:00 AM 17.21 62.978 0.064 6.69 1.42 8.99
6/2/2022 5:45:00 AM 17.19 62.942 0.064 6.69 1.46 9
6/2/2022 6:00:00 AM 17.16 62.888 0.064 6.71 1.33 9.02
6/2/2022 6:15:00 AM 17.14 62.852 0.064 6.73 1.24 9.04
6/2/2022 6:30:00 AM 17.12 62.816 0.064 6.73 1.22 9.05
6/2/2022 6:45:00 AM 17.1 62.78 0.064 6.73 1.14 9.07
6/2/2022 7:00:00 AM 17.08 62.744 0.064 6.74 1.26 9.09
6/2/2022 7:15:00 AM 17.07 62.726 0.065 6.73 1.04 9.09
6/2/2022 7:30:00 AM 17.06 62.708 0.065 6.74 0.93 9.11
6/2/2022 7:45:00 AM 17.05 62.69 0.065 6.75 1.01 9.13
6/2/2022 8:00:00 AM 17.04 62.672 0.065 6.76 0.85 9.16
6/2/2022 8:15:00 AM 17.04 62.672 0.065 6.78 0.8 9.16
6/2/2022 8:30:00 AM 17.04 62.672 0.066 6.78 0.72 9.18
6/2/2022 8:45:00 AM 17.05 62.69 0.066 6.78 0.67 9.22
6/2/2022 9:00:00 AM 17.06 62.708 0.066 6.81 0.7 9.24
6/2/2022 9:15:00 AM 17.07 62.726 0.066 6.82 0.75 9.26
6/2/2022 9:30:00 AM 17.1 62.78 0.066 6.83 0.63 9.29
6/2/2022 9:45:00 AM 17.13 62.834 0.066 6.84 0.75 9.33
6/2/2022 10:00:00 AM 17.17 62.906 0.065 6.86 0.63 9.32
6/2/2022 10:15:00 AM 17.2 62.96 0.065 6.86 0.53 9.29
6/2/2022 10:30:00 AM 17.2 62.96 0.065 6.85 0.66 9.27
6/2/2022 10:45:00 AM 17.24 63.032 0.065 6.86 0.54 9.3
6/2/2022 11:00:00 AM 17.26 63.068 0.064 6.87 0.5 9.29
6/2/2022 11:15:00 AM 17.29 63.122 0.064 6.88 0.62 9.27
6/2/2022 11:30:00 AM 17.29 63.122 0.064 6.86 0.55 9.22
6/2/2022 11:45:00 AM 17.28 63.104 0.064 6.84 0.44 9.18
6/2/2022 12:00:00 PM 17.27 63.086 0.064 6.81 0.5 9.15
6/2/2022 12:15:00 PM 17.26 63.068 0.064 6.82 0.45 9.16
6/2/2022 12:30:00 PM 17.25 63.05 0.064 6.81 0.4 9.17
6/2/2022 12:45:00 PM 17.25 63.05 0.063 6.82 0.5 9.19
6/2/2022 1:00:00 PM 17.28 63.104 0.063 6.84 0.44 9.28
6/2/2022 1:15:00 PM 17.32 63.176 0.063 6.88 0.38 9.32
6/2/2022 1:30:00 PM 17.35 63.23 0.063 6.89 0.45 9.32
6/2/2022 1:45:00 PM 17.41 63.338 0.063 6.89 0.52 9.33
6/2/2022 2:00:00 PM 17.44 63.392 0.062 6.89 0.5 9.29
6/2/2022 2:15:00 PM 17.49 63.482 0.062 6.89 0.47 9.3

These are provisional data and have not been subject to a quality assurance process, but rather are the raw data reported by the instrument.
H: value is above sensor operating range
L: value is below sensor operating range
Offline: station is not reporting data
NC: parameter is not collected at site

Data Availability & Limitations

Uncertainty and potential for error can be associated with environmental monitoring data. Provisional data have not been subject to a quality assurance process, but rather are the raw data reported by the instrument. Data users are cautioned to consider carefully the provisional nature of the information before using it for decisions that concern personal or public safety or the conduct of business that involves substantial monetary or operational consequences.

Approved data are currently available by request by emailing: srbc@srbc.net. Approved data have been subject to a quality assurance process to correct for equipment or fouling drift. Data recorded during equipment malfunctions have been removed.

View Historical Stations that have been discontinued.